Wetterdaten: Montag, 20.08.2018
Datum Zeit Temp. Aussen Temp. o. S. +5cm Feuchte Auss Luftdruck Regen Sonnenschein Regendauer Solar Windben Empfang
20.08.2018 00:00 20,1 C 19,4 C 18,3 C 83 % 1016,4 hPa 0,0 l/m 0 min 0 min 0 W/m 0,0 km/h (0 Bft) 100,00 %
20.08.2018 00:02 20,1 C 19,4 C 18,3 C 83 % 1016,3 hPa 0,0 l/m 0 min 0 min 0 W/m 0,0 km/h (0 Bft) 94,87 %
20.08.2018 00:04 20,1 C 19,4 C 18,3 C 83 % 1016,3 hPa 0,0 l/m 0 min 0 min 0 W/m 0,0 km/h (0 Bft) 95,65 %
20.08.2018 00:07 20,1 C 19,4 C 18,9 C 83 % 1016,4 hPa 0,0 l/m 0 min 0 min 0 W/m 0,0 km/h (0 Bft) 98,59 %
20.08.2018 00:08 20,1 C 19,4 C 18,9 C 83 % 1016,4 hPa 0,0 l/m 0 min 0 min 0 W/m 0,0 km/h (0 Bft) 95,65 %
20.08.2018 00:10 20,1 C 19,4 C 18,9 C 83 % 1016,3 hPa 0,0 l/m 0 min 0 min 0 W/m 2,3 km/h (1 Bft) 97,87 %
20.08.2018 00:12 20,1 C 19,4 C 18,9 C 83 % 1016,3 hPa 0,0 l/m 0 min 0 min 0 W/m 2,3 km/h (1 Bft) 100,00 %
20.08.2018 00:14 20,1 C 19,4 C 18,9 C 83 % 1016,3 hPa 0,0 l/m 0 min 0 min 0 W/m 2,3 km/h (1 Bft) 95,74 %
20.08.2018 00:16 20,1 C 19,4 C 18,9 C 83 % 1016,3 hPa 0,0 l/m 0 min 0 min 0 W/m 2,3 km/h (1 Bft) 97,87 %
20.08.2018 00:18 20,1 C 19,4 C 18,9 C 83 % 1016,3 hPa 0,0 l/m 0 min 0 min 0 W/m 2,3 km/h (1 Bft) 95,65 %
20.08.2018 00:20 20,1 C 19,4 C 18,9 C 83 % 1016,4 hPa 0,0 l/m 0 min 0 min 0 W/m 0,0 km/h (0 Bft) 97,87 %
20.08.2018 00:22 20,1 C 19,4 C 18,9 C 83 % 1016,4 hPa 0,0 l/m 0 min 0 min 0 W/m 0,0 km/h (0 Bft) 95,74 %
20.08.2018 00:24 20,1 C 19,4 C 18,9 C 83 % 1016,4 hPa 0,0 l/m 0 min 0 min 0 W/m 0,0 km/h (0 Bft) 97,87 %
20.08.2018 00:26 20,1 C 19,4 C 18,9 C 83 % 1016,3 hPa 0,0 l/m 0 min 0 min 0 W/m 0,0 km/h (0 Bft) 97,87 %
20.08.2018 00:28 20,1 C 19,4 C 18,9 C 83 % 1016,3 hPa 0,0 l/m 0 min 0 min 0 W/m 2,3 km/h (1 Bft) 100,00 %
20.08.2018 00:30 20,1 C 19,4 C 18,9 C 83 % 1016,2 hPa 0,0 l/m 0 min 0 min 0 W/m 2,3 km/h (1 Bft) 100,00 %
20.08.2018 00:32 20,1 C 19,4 C 18,9 C 83 % 1016,3 hPa 0,0 l/m 0 min 0 min 0 W/m 0,0 km/h (0 Bft) 100,00 %
20.08.2018 00:34 20,1 C 19,4 C 18,9 C 83 % 1016,3 hPa 0,0 l/m 0 min 0 min 0 W/m 2,3 km/h (1 Bft) 97,87 %
20.08.2018 00:36 20,1 C 19,4 C 18,9 C 83 % 1016,3 hPa 0,0 l/m 0 min 0 min 0 W/m 2,3 km/h (1 Bft) 100,00 %
20.08.2018 00:38 20,1 C 20,0 C 18,9 C 83 % 1016,2 hPa 0,0 l/m 0 min 0 min 0 W/m 2,3 km/h (1 Bft) 93,62 %
20.08.2018 00:40 20,1 C 20,0 C 19,4 C 83 % 1016,4 hPa 0,0 l/m 0 min 0 min 0 W/m 4,5 km/h (1 Bft) 95,74 %
20.08.2018 00:42 20,1 C 20,0 C 19,4 C 83 % 1016,3 hPa 0,0 l/m 0 min 0 min 0 W/m 2,3 km/h (1 Bft) 97,87 %
20.08.2018 00:44 20,1 C 20,0 C 19,4 C 83 % 1016,3 hPa 0,0 l/m 0 min 0 min 0 W/m 2,3 km/h (1 Bft) 97,87 %
20.08.2018 00:46 20,1 C 20,0 C 19,4 C 83 % 1016,3 hPa 0,0 l/m 0 min 0 min 0 W/m 2,3 km/h (1 Bft) 97,83 %
20.08.2018 00:48 20,1 C 20,0 C 19,4 C 83 % 1016,4 hPa 0,0 l/m 0 min 0 min 0 W/m 0,0 km/h (0 Bft) 97,87 %
20.08.2018 00:50 20,2 C 20,0 C 19,4 C 83 % 1016,3 hPa 0,0 l/m 0 min 0 min 0 W/m 0,0 km/h (0 Bft) 97,87 %
20.08.2018 00:52 20,2 C 20,0 C 19,4 C 83 % 1016,3 hPa 0,0 l/m 0 min 0 min 0 W/m 2,3 km/h (1 Bft) 97,87 %
20.08.2018 00:54 20,2 C 20,0 C 19,4 C 83 % 1016,3 hPa 0,0 l/m 0 min 0 min 0 W/m 2,3 km/h (1 Bft) 97,87 %
20.08.2018 00:56 20,2 C 20,0 C 19,4 C 83 % 1016,3 hPa 0,0 l/m 0 min 0 min 0 W/m 2,3 km/h (1 Bft) 97,87 %
20.08.2018 00:58 20,2 C 20,0 C 19,4 C 83 % 1016,4 hPa 0,0 l/m 0 min 0 min 0 W/m 0,0 km/h (0 Bft) 95,65 %
20.08.2018 01:00 20,2 C 20,0 C 19,4 C 83 % 1016,3 hPa 0,0 l/m 0 min 0 min 0 W/m 0,0 km/h (0 Bft) 97,87 %
20.08.2018 01:02 20,2 C 20,0 C 19,4 C 83 % 1016,3 hPa 0,0 l/m 0 min 0 min 0 W/m 0,0 km/h (0 Bft) 95,74 %
20.08.2018 01:04 20,2 C 20,0 C 19,4 C 83 % 1016,3 hPa 0,0 l/m 0 min 0 min 0 W/m 2,3 km/h (1 Bft) 97,87 %
20.08.2018 01:06 20,2 C 20,0 C 19,4 C 83 % 1016,3 hPa 0,0 l/m 0 min 0 min 0 W/m 2,3 km/h (1 Bft) 97,87 %
20.08.2018 01:08 20,2 C 20,0 C 19,4 C 83 % 1016,3 hPa 0,0 l/m 0 min 0 min 0 W/m 0,0 km/h (0 Bft) 97,87 %
20.08.2018 01:10 20,2 C 20,0 C 19,4 C 83 % 1016,4 hPa 0,0 l/m 0 min 0 min 0 W/m 4,5 km/h (1 Bft) 95,65 %
20.08.2018 01:12 20,3 C 20,0 C 19,4 C 83 % 1016,4 hPa 0,0 l/m 0 min 0 min 0 W/m 2,3 km/h (1 Bft) 97,87 %
20.08.2018 01:14 20,3 C 20,0 C 19,4 C 83 % 1016,4 hPa 0,0 l/m 0 min 0 min 0 W/m 0,0 km/h (0 Bft) 97,87 %
20.08.2018 01:16 20,3 C 20,0 C 19,4 C 83 % 1016,4 hPa 0,0 l/m 0 min 0 min 0 W/m 0,0 km/h (0 Bft) 95,74 %
20.08.2018 01:18 20,3 C 20,0 C 19,4 C 83 % 1016,4 hPa 0,0 l/m 0 min 0 min 0 W/m 0,0 km/h (0 Bft) 97,87 %
20.08.2018 01:20 20,3 C 20,0 C 19,4 C 83 % 1016,4 hPa 0,0 l/m 0 min 0 min 0 W/m 0,0 km/h (0 Bft) 97,87 %
20.08.2018 01:22 20,3 C 20,0 C 19,4 C 84 % 1016,5 hPa 0,0 l/m 0 min 0 min 0 W/m 2,3 km/h (1 Bft) 95,65 %
20.08.2018 01:24 20,3 C 20,0 C 19,4 C 84 % 1016,5 hPa 0,0 l/m 0 min 0 min 0 W/m 4,5 km/h (1 Bft) 95,74 %
20.08.2018 01:26 20,3 C 20,0 C 19,4 C 84 % 1016,4 hPa 0,0 l/m 0 min 0 min 0 W/m 2,3 km/h (1 Bft) 95,74 %
20.08.2018 01:28 20,3 C 20,0 C 19,4 C 84 % 1016,5 hPa 0,0 l/m 0 min 0 min 0 W/m 2,3 km/h (1 Bft) 95,74 %
20.08.2018 01:30 20,3 C 19,4 C 19,4 C 84 % 1016,5 hPa 0,0 l/m 0 min 0 min 0 W/m 4,5 km/h (1 Bft) 95,74 %
20.08.2018 01:32 20,4 C 20,0 C 19,4 C 84 % 1016,5 hPa 0,0 l/m 0 min 0 min 0 W/m 4,5 km/h (1 Bft) 93,62 %
20.08.2018 01:34 20,4 C 19,4 C 19,4 C 84 % 1016,5 hPa 0,0 l/m 0 min 0 min 0 W/m 0,0 km/h (0 Bft) 95,65 %
20.08.2018 01:36 20,4 C 19,4 C 19,4 C 84 % 1016,5 hPa 0,0 l/m 0 min 0 min 0 W/m 6,8 km/h (2 Bft) 95,74 %
20.08.2018 01:38 20,4 C 19,4 C 19,4 C 84 % 1016,4 hPa 0,0 l/m 0 min 0 min 0 W/m 4,5 km/h (1 Bft) 95,74 %
20.08.2018 01:40 20,4 C 19,4 C 19,4 C 83 % 1016,5 hPa 0,0 l/m 0 min 0 min 0 W/m 4,5 km/h (1 Bft) 95,74 %
20.08.2018 01:42 20,4 C 19,4 C 19,4 C 83 % 1016,5 hPa 0,0 l/m 0 min 0 min 0 W/m 6,8 km/h (2 Bft) 95,74 %
20.08.2018 01:44 20,4 C 19,4 C 19,4 C 83 % 1016,5 hPa 0,0 l/m 0 min 0 min 0 W/m 4,5 km/h (1 Bft) 97,87 %
20.08.2018 01:46 20,4 C 19,4 C 19,4 C 83 % 1016,5 hPa 0,0 l/m 0 min 0 min 0 W/m 4,5 km/h (1 Bft) 97,83 %
20.08.2018 01:48 20,4 C 19,4 C 19,4 C 83 % 1016,4 hPa 0,0 l/m 0 min 0 min 0 W/m 2,3 km/h (1 Bft) 95,74 %
20.08.2018 01:50 20,4 C 19,4 C 18,9 C 84 % 1016,5 hPa 0,0 l/m 0 min 0 min 0 W/m 4,5 km/h (1 Bft) 97,87 %
20.08.2018 01:52 20,4 C 19,4 C 18,9 C 84 % 1016,5 hPa 0,0 l/m 0 min 0 min 0 W/m 2,3 km/h (1 Bft) 97,87 %
20.08.2018 01:54 20,4 C 19,4 C 18,9 C 84 % 1016,5 hPa 0,0 l/m 0 min 0 min 0 W/m 2,3 km/h (1 Bft) 97,87 %
20.08.2018 01:56 20,4 C 19,4 C 18,9 C 84 % 1016,6 hPa 0,0 l/m 0 min 0 min 0 W/m 4,5 km/h (1 Bft) 97,83 %
20.08.2018 01:58 20,4 C 19,4 C 18,9 C 84 % 1016,5 hPa 0,0 l/m 0 min 0 min 0 W/m 6,8 km/h (2 Bft) 97,87 %
20.08.2018 02:00 20,4 C 19,4 C 18,9 C 84 % 1016,6 hPa 0,0 l/m 0 min 0 min 0 W/m 4,5 km/h (1 Bft) 95,74 %
20.08.2018 02:02 20,4 C 19,4 C 18,9 C 84 % 1016,6 hPa 0,0 l/m 0 min 0 min 0 W/m 2,3 km/h (1 Bft) 97,87 %
20.08.2018 02:04 20,4 C 19,4 C 18,9 C 84 % 1016,6 hPa 0,0 l/m 0 min 0 min 0 W/m 4,5 km/h (1 Bft) 97,87 %
20.08.2018 02:06 20,4 C 19,4 C 18,9 C 84 % 1016,6 hPa 0,0 l/m 0 min 0 min 0 W/m 2,3 km/h (1 Bft) 100,00 %
20.08.2018 02:08 20,4 C 19,4 C 18,9 C 84 % 1016,6 hPa 0,0 l/m 0 min 0 min 0 W/m 2,3 km/h (1 Bft) 100,00 %
20.08.2018 02:10 20,4 C 19,4 C 18,9 C 84 % 1016,5 hPa 0,0 l/m 0 min 0 min 0 W/m 4,5 km/h (1 Bft) 100,00 %
20.08.2018 02:12 20,4 C 19,4 C 18,9 C 84 % 1016,6 hPa 0,0 l/m 0 min 0 min 0 W/m 2,3 km/h (1 Bft) 97,87 %
20.08.2018 02:14 20,3 C 19,4 C 18,9 C 85 % 1016,5 hPa 0,0 l/m 0 min 0 min 0 W/m 2,3 km/h (1 Bft) 100,00 %
20.08.2018 02:16 20,3 C 19,4 C 18,9 C 85 % 1016,5 hPa 0,0 l/m 0 min 0 min 0 W/m 0,0 km/h (0 Bft) 97,87 %
20.08.2018 02:18 20,3 C 19,4 C 18,9 C 85 % 1016,6 hPa 0,0 l/m 0 min 0 min 0 W/m 4,5 km/h (1 Bft) 100,00 %
20.08.2018 02:20 20,3 C 19,4 C 18,9 C 85 % 1016,6 hPa 0,0 l/m 0 min 0 min 0 W/m 2,3 km/h (1 Bft) 100,00 %
20.08.2018 02:22 20,3 C 19,4 C 18,9 C 85 % 1016,6 hPa 0,0 l/m 0 min 0 min 0 W/m 2,3 km/h (1 Bft) 97,87 %
20.08.2018 02:24 20,3 C 19,4 C 18,9 C 85 % 1016,6 hPa 0,0 l/m 0 min 0 min 0 W/m 0,0 km/h (0 Bft) 100,00 %
20.08.2018 02:26 20,3 C 19,4 C 18,9 C 85 % 1016,5 hPa 0,0 l/m 0 min 0 min 0 W/m 0,0 km/h (0 Bft) 100,00 %
20.08.2018 02:28 20,3 C 19,4 C 18,9 C 85 % 1016,5 hPa 0,0 l/m 0 min 0 min 0 W/m 0,0 km/h (0 Bft) 100,00 %
20.08.2018 02:30 20,3 C 19,4 C 18,9 C 85 % 1016,6 hPa 0,0 l/m 0 min 0 min 0 W/m 0,0 km/h (0 Bft) 100,00 %
20.08.2018 02:32 20,3 C 19,4 C 18,9 C 86 % 1016,5 hPa 0,0 l/m 0 min 0 min 0 W/m 0,0 km/h (0 Bft) 100,00 %
20.08.2018 02:34 20,3 C 19,4 C 18,9 C 86 % 1016,5 hPa 0,0 l/m 0 min 0 min 0 W/m 0,0 km/h (0 Bft) 95,74 %
20.08.2018 02:36 20,3 C 18,9 C 18,9 C 86 % 1016,6 hPa 0,0 l/m 0 min 0 min 0 W/m 2,3 km/h (1 Bft) 97,87 %
20.08.2018 02:38 20,3 C 18,9 C 18,9 C 86 % 1016,6 hPa 0,0 l/m 0 min 0 min 0 W/m 0,0 km/h (0 Bft) 100,00 %
20.08.2018 02:40 20,3 C 18,9 C 18,9 C 86 % 1016,5 hPa 0,0 l/m 0 min 0 min 0 W/m 2,3 km/h (1 Bft) 100,00 %
20.08.2018 02:42 20,2 C 18,9 C 18,9 C 86 % 1016,5 hPa 0,0 l/m 0 min 0 min 0 W/m 2,3 km/h (1 Bft) 100,00 %
20.08.2018 02:44 20,2 C 18,9 C 18,9 C 86 % 1016,6 hPa 0,0 l/m 0 min 0 min 0 W/m 0,0 km/h (0 Bft) 100,00 %
20.08.2018 02:46 20,2 C 18,9 C 18,9 C 86 % 1016,6 hPa 0,0 l/m 0 min 0 min 0 W/m 2,3 km/h (1 Bft) 100,00 %
20.08.2018 02:48 20,2 C 18,9 C 18,9 C 86 % 1016,6 hPa 0,0 l/m 0 min 0 min 0 W/m 2,3 km/h (1 Bft) 100,00 %
20.08.2018 02:50 20,2 C 18,9 C 18,9 C 86 % 1016,5 hPa 0,0 l/m 0 min 0 min 0 W/m 0,0 km/h (0 Bft) 100,00 %
20.08.2018 02:52 20,2 C 18,9 C 18,9 C 86 % 1016,6 hPa 0,0 l/m 0 min 0 min 0 W/m 0,0 km/h (0 Bft) 100,00 %
20.08.2018 02:54 20,2 C 18,9 C 18,9 C 86 % 1016,6 hPa 0,0 l/m 0 min 0 min 0 W/m 0,0 km/h (0 Bft) 95,74 %
20.08.2018 02:56 20,2 C 18,9 C 18,9 C 86 % 1016,5 hPa 0,0 l/m 0 min 0 min 0 W/m 2,3 km/h (1 Bft) 100,00 %
20.08.2018 02:58 20,2 C 18,9 C 18,9 C 86 % 1016,5 hPa 0,0 l/m 0 min 0 min 0 W/m 2,3 km/h (1 Bft) 97,87 %
20.08.2018 03:00 20,2 C 19,4 C 18,9 C 86 % 1016,5 hPa 0,0 l/m 0 min 0 min 0 W/m 2,3 km/h (1 Bft) 97,87 %
20.08.2018 03:02 20,2 C 19,4 C 18,9 C 86 % 1016,4 hPa 0,0 l/m 0 min 0 min 0 W/m 4,5 km/h (1 Bft) 95,74 %
20.08.2018 03:04 20,2 C 19,4 C 18,9 C 86 % 1016,4 hPa 0,0 l/m 0 min 0 min 0 W/m 4,5 km/h (1 Bft) 97,87 %
20.08.2018 03:06 20,1 C 19,4 C 18,9 C 86 % 1016,4 hPa 0,0 l/m 0 min 0 min 0 W/m 4,5 km/h (1 Bft) 97,87 %
20.08.2018 03:08 20,1 C 19,4 C 18,9 C 86 % 1016,5 hPa 0,0 l/m 0 min 0 min 0 W/m 4,5 km/h (1 Bft) 97,83 %
20.08.2018 03:10 20,1 C 19,4 C 18,9 C 86 % 1016,4 hPa 0,0 l/m 0 min 0 min 0 W/m 4,5 km/h (1 Bft) 97,87 %
20.08.2018 03:12 20,1 C 19,4 C 18,9 C 86 % 1016,3 hPa 0,0 l/m 0 min 0 min 0 W/m 2,3 km/h (1 Bft) 97,87 %
20.08.2018 03:14 20,1 C 19,4 C 18,9 C 86 % 1016,4 hPa 0,0 l/m 0 min 0 min 0 W/m 0,0 km/h (0 Bft) 97,87 %
20.08.2018 03:16 20,1 C 19,4 C 18,9 C 86 % 1016,4 hPa 0,0 l/m 0 min 0 min 0 W/m 4,5 km/h (1 Bft) 97,87 %
20.08.2018 03:18 20,1 C 18,9 C 18,9 C 86 % 1016,4 hPa 0,0 l/m 0 min 0 min 0 W/m 2,3 km/h (1 Bft) 97,83 %
20.08.2018 03:20 20,1 C 18,9 C 18,9 C 86 % 1016,4 hPa 0,0 l/m 0 min 0 min 0 W/m 4,5 km/h (1 Bft) 97,87 %
20.08.2018 03:22 20,1 C 18,9 C 18,9 C 86 % 1016,4 hPa 0,0 l/m 0 min 0 min 0 W/m 2,3 km/h (1 Bft) 95,74 %
20.08.2018 03:24 20,1 C 18,9 C 18,9 C 86 % 1016,3 hPa 0,0 l/m 0 min 0 min 0 W/m 2,3 km/h (1 Bft) 95,74 %
20.08.2018 03:26 20,0 C 18,9 C 18,9 C 86 % 1016,4 hPa 0,0 l/m 0 min 0 min 0 W/m 9,0 km/h (2 Bft) 95,74 %
20.08.2018 03:28 20,0 C 18,9 C 18,9 C 86 % 1016,3 hPa 0,0 l/m 0 min 0 min 0 W/m 4,5 km/h (1 Bft) 97,87 %
20.08.2018 03:30 20,0 C 18,9 C 18,9 C 86 % 1016,4 hPa 0,0 l/m 0 min 0 min 0 W/m 6,8 km/h (2 Bft) 97,87 %
20.08.2018 03:32 19,9 C 18,9 C 18,3 C 86 % 1016,3 hPa 0,0 l/m 0 min 0 min 0 W/m 4,5 km/h (1 Bft) 95,65 %
20.08.2018 03:34 19,9 C 18,3 C 18,3 C 87 % 1016,4 hPa 0,0 l/m 0 min 0 min 0 W/m 4,5 km/h (1 Bft) 95,74 %
20.08.2018 03:36 19,9 C 18,3 C 18,3 C 87 % 1016,4 hPa 0,0 l/m 0 min 0 min 0 W/m 9,0 km/h (2 Bft) 97,87 %
20.08.2018 03:38 19,9 C 18,3 C 18,3 C 87 % 1016,3 hPa 0,0 l/m 0 min 0 min 0 W/m 4,5 km/h (1 Bft) 97,87 %
20.08.2018 03:40 19,8 C 18,3 C 18,3 C 87 % 1016,3 hPa 0,0 l/m 0 min 0 min 0 W/m 2,3 km/h (1 Bft) 97,87 %
20.08.2018 03:42 19,8 C 18,3 C 18,3 C 87 % 1016,4 hPa 0,0 l/m 0 min 0 min 0 W/m 4,5 km/h (1 Bft) 95,65 %
20.08.2018 03:44 19,7 C 18,3 C 18,3 C 86 % 1016,5 hPa 0,0 l/m 0 min 0 min 0 W/m 4,5 km/h (1 Bft) 95,74 %
20.08.2018 03:46 19,7 C 18,3 C 18,3 C 86 % 1016,5 hPa 0,0 l/m 0 min 0 min 0 W/m 2,3 km/h (1 Bft) 97,87 %
20.08.2018 03:48 19,7 C 18,3 C 18,3 C 86 % 1016,4 hPa 0,0 l/m 0 min 0 min 0 W/m 9,0 km/h (2 Bft) 95,74 %
20.08.2018 03:50 19,6 C 18,3 C 18,3 C 86 % 1016,4 hPa 0,0 l/m 0 min 0 min 0 W/m 4,5 km/h (1 Bft) 95,74 %
20.08.2018 03:52 19,6 C 18,3 C 18,3 C 86 % 1016,4 hPa 0,0 l/m 0 min 0 min 0 W/m 2,3 km/h (1 Bft) 95,74 %
20.08.2018 03:54 19,5 C 18,3 C 17,8 C 86 % 1016,5 hPa 0,0 l/m 0 min 0 min 0 W/m 2,3 km/h (1 Bft) 95,65 %
20.08.2018 03:56 19,5 C 18,3 C 17,8 C 86 % 1016,6 hPa 0,0 l/m 0 min 0 min 0 W/m 2,3 km/h (1 Bft) 93,62 %
20.08.2018 03:58 19,4 C 17,8 C 17,8 C 86 % 1016,5 hPa 0,0 l/m 0 min 0 min 0 W/m 2,3 km/h (1 Bft) 95,74 %
20.08.2018 04:00 19,4 C 17,8 C 17,8 C 86 % 1016,5 hPa 0,0 l/m 0 min 0 min 0 W/m 2,3 km/h (1 Bft) 97,87 %
20.08.2018 04:02 19,4 C 18,3 C 17,8 C 86 % 1016,5 hPa 0,0 l/m 0 min 0 min 0 W/m 2,3 km/h (1 Bft) 100,00 %
20.08.2018 04:04 19,4 C 17,8 C 17,8 C 87 % 1016,3 hPa 0,0 l/m 0 min 0 min 0 W/m 0,0 km/h (0 Bft) 97,87 %
20.08.2018 04:06 19,4 C 17,8 C 17,8 C 87 % 1016,4 hPa 0,0 l/m 0 min 0 min 0 W/m 2,3 km/h (1 Bft) 97,83 %
20.08.2018 04:08 19,3 C 17,8 C 17,8 C 87 % 1016,4 hPa 0,0 l/m 0 min 0 min 0 W/m 2,3 km/h (1 Bft) 91,49 %
20.08.2018 04:10 19,3 C 17,8 C 17,8 C 87 % 1016,4 hPa 0,0 l/m 0 min 0 min 0 W/m 0,0 km/h (0 Bft) 95,74 %
20.08.2018 04:12 19,3 C 17,8 C 17,8 C 87 % 1016,4 hPa 0,0 l/m 0 min 0 min 0 W/m 0,0 km/h (0 Bft) 95,74 %
20.08.2018 04:14 19,3 C 17,8 C 17,8 C 87 % 1016,4 hPa 0,0 l/m 0 min 0 min 0 W/m 0,0 km/h (0 Bft) 93,62 %
20.08.2018 04:16 19,2 C 17,8 C 17,8 C 87 % 1016,3 hPa 0,0 l/m 0 min 0 min 0 W/m 0,0 km/h (0 Bft) 93,62 %
20.08.2018 04:18 19,2 C 17,8 C 17,8 C 87 % 1016,3 hPa 0,0 l/m 0 min 0 min 0 W/m 2,3 km/h (1 Bft) 95,65 %
20.08.2018 04:20 19,2 C 17,8 C 17,8 C 87 % 1016,2 hPa 0,0 l/m 0 min 0 min 0 W/m 2,3 km/h (1 Bft) 95,74 %
20.08.2018 04:22 19,2 C 17,8 C 17,8 C 87 % 1016,3 hPa 0,0 l/m 0 min 0 min 0 W/m 4,5 km/h (1 Bft) 93,62 %
20.08.2018 04:24 19,2 C 17,8 C 17,8 C 87 % 1016,3 hPa 0,0 l/m 0 min 0 min 0 W/m 2,3 km/h (1 Bft) 93,62 %
20.08.2018 04:26 19,1 C 17,8 C 17,8 C 88 % 1016,3 hPa 0,0 l/m 0 min 0 min 0 W/m 0,0 km/h (0 Bft) 93,62 %
20.08.2018 04:28 19,1 C 17,8 C 17,8 C 88 % 1016,2 hPa 0,0 l/m 0 min 0 min 0 W/m 0,0 km/h (0 Bft) 95,74 %
20.08.2018 04:30 19,1 C 17,8 C 17,8 C 88 % 1016,2 hPa 0,0 l/m 0 min 0 min 0 W/m 2,3 km/h (1 Bft) 95,65 %
20.08.2018 04:32 19,1 C 17,2 C 17,8 C 88 % 1016,2 hPa 0,0 l/m 0 min 0 min 0 W/m 0,0 km/h (0 Bft) 91,49 %
20.08.2018 04:34 19,0 C 17,2 C 17,8 C 88 % 1016,2 hPa 0,0 l/m 0 min 0 min 0 W/m 2,3 km/h (1 Bft) 95,74 %
20.08.2018 04:36 19,0 C 17,8 C 17,8 C 88 % 1016,3 hPa 0,0 l/m 0 min 0 min 0 W/m 4,5 km/h (1 Bft) 93,62 %
20.08.2018 04:38 19,0 C 17,8 C 17,8 C 88 % 1016,3 hPa 0,0 l/m 0 min 0 min 0 W/m 2,3 km/h (1 Bft) 95,74 %
20.08.2018 04:40 18,9 C 17,8 C 17,8 C 88 % 1016,3 hPa 0,0 l/m 0 min 0 min 0 W/m 2,3 km/h (1 Bft) 97,87 %
20.08.2018 04:42 18,9 C 17,8 C 17,8 C 88 % 1016,2 hPa 0,0 l/m 0 min 0 min 0 W/m 2,3 km/h (1 Bft) 95,65 %
20.08.2018 04:44 18,9 C 17,8 C 17,8 C 88 % 1016,1 hPa 0,0 l/m 0 min 0 min 0 W/m 2,3 km/h (1 Bft) 97,87 %
20.08.2018 04:46 18,9 C 17,8 C 17,8 C 88 % 1016,1 hPa 0,0 l/m 0 min 0 min 0 W/m 2,3 km/h (1 Bft) 97,87 %
20.08.2018 04:48 18,9 C 17,8 C 17,8 C 88 % 1016,1 hPa 0,0 l/m 0 min 0 min 0 W/m 2,3 km/h (1 Bft) 97,87 %
20.08.2018 04:50 18,8 C 17,8 C 17,8 C 88 % 1016,1 hPa 0,0 l/m 0 min 0 min 0 W/m 0,0 km/h (0 Bft) 97,87 %
20.08.2018 04:52 18,8 C 17,8 C 17,8 C 88 % 1016,2 hPa 0,0 l/m 0 min 0 min 0 W/m 2,3 km/h (1 Bft) 100,00 %
20.08.2018 04:54 18,8 C 17,8 C 17,8 C 88 % 1016,2 hPa 0,0 l/m 0 min 0 min 0 W/m 0,0 km/h (0 Bft) 97,87 %
20.08.2018 04:56 18,8 C 17,8 C 17,8 C 88 % 1016,2 hPa 0,0 l/m 0 min 0 min 0 W/m 2,3 km/h (1 Bft) 100,00 %
20.08.2018 04:58 18,8 C 17,8 C 17,8 C 89 % 1016,2 hPa 0,0 l/m 0 min 0 min 0 W/m 2,3 km/h (1 Bft) 100,00 %
20.08.2018 05:00 18,8 C 17,8 C 17,8 C 89 % 1016,3 hPa 0,0 l/m 0 min 0 min 0 W/m 0,0 km/h (0 Bft) 100,00 %
20.08.2018 05:02 18,8 C 17,8 C 17,8 C 89 % 1016,3 hPa 0,0 l/m 0 min 0 min 0 W/m 2,3 km/h (1 Bft) 97,87 %
20.08.2018 05:04 18,7 C 17,8 C 17,8 C 89 % 1016,1 hPa 0,0 l/m 0 min 0 min 0 W/m 0,0 km/h (0 Bft) 100,00 %
20.08.2018 05:06 18,7 C 17,8 C 17,8 C 89 % 1016,2 hPa 0,0 l/m 0 min 0 min 0 W/m 2,3 km/h (1 Bft) 100,00 %
20.08.2018 05:08 18,7 C 17,8 C 17,8 C 89 % 1016,2 hPa 0,0 l/m 0 min 0 min 0 W/m 0,0 km/h (0 Bft) 100,00 %
20.08.2018 05:10 18,7 C 17,8 C 17,8 C 89 % 1016,1 hPa 0,0 l/m 0 min 0 min 0 W/m 0,0 km/h (0 Bft) 100,00 %
20.08.2018 05:12 18,7 C 17,8 C 17,8 C 89 % 1016,1 hPa 0,0 l/m 0 min 0 min 0 W/m 4,5 km/h (1 Bft) 97,87 %
20.08.2018 05:14 18,7 C 17,8 C 17,8 C 89 % 1016,1 hPa 0,0 l/m 0 min 0 min 0 W/m 0,0 km/h (0 Bft) 100,00 %
20.08.2018 05:16 18,7 C 17,8 C 17,8 C 89 % 1016,2 hPa 0,0 l/m 0 min 0 min 0 W/m 2,3 km/h (1 Bft) 100,00 %
20.08.2018 05:18 18,7 C 17,8 C 17,8 C 89 % 1016,1 hPa 0,0 l/m 0 min 0 min 0 W/m 4,5 km/h (1 Bft) 100,00 %
20.08.2018 05:20 18,7 C 17,8 C 17,8 C 89 % 1016,1 hPa 0,0 l/m 0 min 0 min 0 W/m 2,3 km/h (1 Bft) 100,00 %
20.08.2018 05:22 18,7 C 18,3 C 17,8 C 89 % 1016,1 hPa 0,0 l/m 0 min 0 min 0 W/m 2,3 km/h (1 Bft) 100,00 %
20.08.2018 05:24 18,7 C 18,3 C 17,8 C 89 % 1016,2 hPa 0,0 l/m 0 min 0 min 0 W/m 4,5 km/h (1 Bft) 100,00 %
20.08.2018 05:26 18,7 C 18,3 C 17,8 C 89 % 1016,3 hPa 0,0 l/m 0 min 0 min 0 W/m 6,8 km/h (2 Bft) 97,87 %
20.08.2018 05:28 18,7 C 18,3 C 17,8 C 89 % 1016,3 hPa 0,0 l/m 0 min 0 min 0 W/m 2,3 km/h (1 Bft) 100,00 %
20.08.2018 05:30 18,7 C 18,3 C 17,8 C 89 % 1016,3 hPa 0,0 l/m 0 min 0 min 0 W/m 2,3 km/h (1 Bft) 100,00 %
20.08.2018 05:32 18,7 C 18,3 C 17,8 C 89 % 1016,3 hPa 0,0 l/m 0 min 0 min 0 W/m 4,5 km/h (1 Bft) 93,62 %
20.08.2018 05:34 18,7 C 18,3 C 17,8 C 89 % 1016,4 hPa 0,0 l/m 0 min 0 min 0 W/m 2,3 km/h (1 Bft) 97,87 %
20.08.2018 05:36 18,7 C 17,8 C 17,8 C 89 % 1016,4 hPa 0,0 l/m 0 min 0 min 0 W/m 4,5 km/h (1 Bft) 100,00 %
20.08.2018 05:38 18,7 C 17,8 C 17,8 C 89 % 1016,3 hPa 0,0 l/m 0 min 0 min 0 W/m 4,5 km/h (1 Bft) 100,00 %
20.08.2018 05:40 18,7 C 17,8 C 17,8 C 89 % 1016,3 hPa 0,0 l/m 0 min 0 min 0 W/m 2,3 km/h (1 Bft) 100,00 %
20.08.2018 05:42 18,7 C 17,8 C 17,8 C 89 % 1016,4 hPa 0,0 l/m 0 min 0 min 0 W/m 2,3 km/h (1 Bft) 100,00 %
20.08.2018 05:44 18,7 C 17,8 C 17,8 C 89 % 1016,4 hPa 0,0 l/m 0 min 0 min 0 W/m 2,3 km/h (1 Bft) 100,00 %
20.08.2018 05:46 18,7 C 17,8 C 17,8 C 89 % 1016,4 hPa 0,0 l/m 0 min 0 min 0 W/m 6,8 km/h (2 Bft) 100,00 %
20.08.2018 05:48 18,7 C 17,8 C 17,8 C 89 % 1016,4 hPa 0,0 l/m 0 min 0 min 0 W/m 2,3 km/h (1 Bft) 100,00 %
20.08.2018 05:50 18,7 C 17,8 C 17,8 C 89 % 1016,3 hPa 0,0 l/m 0 min 0 min 0 W/m 4,5 km/h (1 Bft) 97,87 %
20.08.2018 05:52 18,7 C 17,8 C 17,8 C 89 % 1016,4 hPa 0,0 l/m 0 min 0 min 0 W/m 4,5 km/h (1 Bft) 100,00 %
20.08.2018 05:54 18,7 C 17,8 C 17,8 C 89 % 1016,3 hPa 0,0 l/m 0 min 0 min 0 W/m 2,3 km/h (1 Bft) 100,00 %
20.08.2018 05:56 18,7 C 17,8 C 17,8 C 89 % 1016,3 hPa 0,0 l/m 0 min 0 min 0 W/m 2,3 km/h (1 Bft) 100,00 %
20.08.2018 05:58 18,7 C 17,8 C 17,8 C 89 % 1016,3 hPa 0,0 l/m 0 min 0 min 0 W/m 2,3 km/h (1 Bft) 100,00 %
20.08.2018 06:00 18,7 C 17,8 C 17,8 C 89 % 1016,2 hPa 0,0 l/m 0 min 0 min 0 W/m 2,3 km/h (1 Bft) 100,00 %
20.08.2018 06:02 18,7 C 17,8 C 17,8 C 89 % 1016,3 hPa 0,0 l/m 0 min 0 min 0 W/m 4,5 km/h (1 Bft) 97,83 %
20.08.2018 06:04 18,7 C 17,8 C 17,8 C 89 % 1016,2 hPa 0,0 l/m 0 min 0 min 0 W/m 2,3 km/h (1 Bft) 100,00 %
20.08.2018 06:06 18,7 C 17,8 C 17,8 C 89 % 1016,1 hPa 0,0 l/m 0 min 0 min 0 W/m 4,5 km/h (1 Bft) 100,00 %
20.08.2018 06:08 18,7 C 17,8 C 17,8 C 89 % 1016,2 hPa 0,0 l/m 0 min 0 min 0 W/m 4,5 km/h (1 Bft) 100,00 %
20.08.2018 06:10 18,7 C 17,8 C 17,8 C 89 % 1016,3 hPa 0,0 l/m 0 min 0 min 0 W/m 2,3 km/h (1 Bft) 100,00 %
20.08.2018 06:12 18,7 C 17,8 C 17,8 C 89 % 1016,3 hPa 0,0 l/m 0 min 0 min 0 W/m 2,3 km/h (1 Bft) 97,87 %
20.08.2018 06:14 18,7 C 17,8 C 17,8 C 89 % 1016,3 hPa 0,0 l/m 0 min 0 min 0 W/m 4,5 km/h (1 Bft) 100,00 %
20.08.2018 06:16 18,7 C 17,8 C 17,8 C 90 % 1016,3 hPa 0,0 l/m 0 min 0 min 0 W/m 2,3 km/h (1 Bft) 100,00 %
20.08.2018 06:18 18,7 C 17,8 C 17,8 C 90 % 1016,4 hPa 0,0 l/m 0 min 0 min 0 W/m 2,3 km/h (1 Bft) 100,00 %
20.08.2018 06:20 18,7 C 17,8 C 17,8 C 90 % 1016,3 hPa 0,0 l/m 0 min 0 min 0 W/m 4,5 km/h (1 Bft) 97,87 %
20.08.2018 06:22 18,7 C 17,8 C 17,8 C 90 % 1016,3 hPa 0,0 l/m 0 min 0 min 0 W/m 2,3 km/h (1 Bft) 100,00 %
20.08.2018 06:24 18,7 C 17,8 C 17,8 C 90 % 1016,4 hPa 0,0 l/m 0 min 0 min 0 W/m 4,5 km/h (1 Bft) 100,00 %
20.08.2018 06:26 18,7 C 17,8 C 17,8 C 90 % 1016,4 hPa 0,0 l/m 0 min 0 min 0 W/m 6,8 km/h (2 Bft) 100,00 %
20.08.2018 06:28 18,7 C 17,8 C 17,8 C 90 % 1016,3 hPa 0,0 l/m 0 min 0 min 0 W/m 2,3 km/h (1 Bft) 97,87 %
20.08.2018 06:30 18,7 C 17,8 C 17,8 C 90 % 1016,3 hPa 0,0 l/m 0 min 0 min 0 W/m 2,3 km/h (1 Bft) 97,87 %
20.08.2018 06:32 18,7 C 17,8 C 17,8 C 90 % 1016,3 hPa 0,0 l/m 0 min 0 min 0 W/m 2,3 km/h (1 Bft) 95,74 %
20.08.2018 06:34 18,7 C 17,8 C 17,8 C 90 % 1016,3 hPa 0,0 l/m 0 min 0 min 0 W/m 4,5 km/h (1 Bft) 97,87 %
20.08.2018 06:36 18,7 C 17,8 C 17,8 C 90 % 1016,3 hPa 0,0 l/m 0 min 0 min 0 W/m 6,8 km/h (2 Bft) 100,00 %
20.08.2018 06:38 18,7 C 18,3 C 17,8 C 90 % 1016,3 hPa 0,0 l/m 0 min 0 min 4 W/m 2,3 km/h (1 Bft) 95,65 %
20.08.2018 06:40 18,7 C 18,3 C 17,8 C 90 % 1016,3 hPa 0,0 l/m 0 min 0 min 5 W/m 0,0 km/h (0 Bft) 95,74 %
20.08.2018 06:42 18,7 C 18,3 C 17,8 C 90 % 1016,3 hPa 0,0 l/m 0 min 0 min 7 W/m 2,3 km/h (1 Bft) 95,74 %
20.08.2018 06:44 18,7 C 18,3 C 17,8 C 90 % 1016,3 hPa 0,0 l/m 0 min 0 min 6 W/m 0,0 km/h (0 Bft) 93,62 %
20.08.2018 06:46 18,7 C 18,3 C 17,8 C 90 % 1016,3 hPa 0,0 l/m 0 min 0 min 5 W/m 0,0 km/h (0 Bft) 93,62 %
20.08.2018 06:48 18,7 C 18,3 C 17,8 C 90 % 1016,3 hPa 0,0 l/m 0 min 0 min 5 W/m 2,3 km/h (1 Bft) 93,62 %
20.08.2018 06:50 18,7 C 18,3 C 17,8 C 90 % 1016,3 hPa 0,0 l/m 0 min 0 min 7 W/m 2,3 km/h (1 Bft) 95,65 %
20.08.2018 06:52 18,7 C 18,3 C 17,8 C 90 % 1016,3 hPa 0,0 l/m 0 min 0 min 7 W/m 2,3 km/h (1 Bft) 93,62 %
20.08.2018 06:54 18,7 C 18,3 C 17,8 C 90 % 1016,3 hPa 0,0 l/m 0 min 0 min 7 W/m 4,5 km/h (1 Bft) 93,62 %
20.08.2018 06:56 18,7 C 18,3 C 17,8 C 90 % 1016,3 hPa 0,0 l/m 0 min 0 min 8 W/m 4,5 km/h (1 Bft) 91,49 %
20.08.2018 06:58 18,7 C 18,3 C 17,8 C 90 % 1016,2 hPa 0,0 l/m 0 min 0 min 10 W/m 2,3 km/h (1 Bft) 93,62 %
20.08.2018 07:00 18,8 C 18,3 C 17,8 C 90 % 1016,2 hPa 0,0 l/m 0 min 0 min 11 W/m 0,0 km/h (0 Bft) 91,49 %
20.08.2018 07:02 18,7 C 18,3 C 17,8 C 90 % 1016,2 hPa 0,0 l/m 0 min 0 min 11 W/m 2,3 km/h (1 Bft) 91,30 %
20.08.2018 07:04 18,8 C 18,3 C 17,8 C 90 % 1016,2 hPa 0,0 l/m 0 min 0 min 15 W/m 4,5 km/h (1 Bft) 93,62 %
20.08.2018 07:06 18,8 C 18,3 C 17,8 C 91 % 1016,2 hPa 0,0 l/m 0 min 0 min 16 W/m 6,8 km/h (2 Bft) 93,62 %
20.08.2018 07:08 18,8 C 18,3 C 17,8 C 91 % 1016,2 hPa 0,0 l/m 0 min 0 min 18 W/m 4,5 km/h (1 Bft) 93,62 %
20.08.2018 07:10 18,8 C 18,3 C 17,8 C 91 % 1016,2 hPa 0,0 l/m 0 min 0 min 20 W/m 4,5 km/h (1 Bft) 93,62 %
20.08.2018 07:12 18,8 C 18,3 C 17,8 C 91 % 1016,3 hPa 0,0 l/m 0 min 0 min 19 W/m 0,0 km/h (0 Bft) 93,48 %
20.08.2018 07:14 18,8 C 18,3 C 17,8 C 91 % 1016,4 hPa 0,0 l/m 0 min 0 min 20 W/m 4,5 km/h (1 Bft) 91,49 %
20.08.2018 07:16 18,8 C 18,3 C 17,8 C 91 % 1016,4 hPa 0,0 l/m 0 min 0 min 19 W/m 2,3 km/h (1 Bft) 93,62 %
20.08.2018 07:18 18,8 C 18,3 C 17,8 C 91 % 1016,3 hPa 0,0 l/m 0 min 0 min 20 W/m 4,5 km/h (1 Bft) 91,49 %
20.08.2018 07:20 18,8 C 18,3 C 17,8 C 91 % 1016,3 hPa 0,0 l/m 0 min 0 min 19 W/m 4,5 km/h (1 Bft) 93,62 %
20.08.2018 07:22 18,8 C 18,3 C 17,8 C 91 % 1016,3 hPa 0,0 l/m 0 min 0 min 21 W/m 4,5 km/h (1 Bft) 91,49 %
20.08.2018 07:24 18,8 C 18,3 C 17,8 C 91 % 1016,3 hPa 0,0 l/m 0 min 0 min 20 W/m 2,3 km/h (1 Bft) 93,62 %
20.08.2018 07:26 18,8 C 18,3 C 17,8 C 91 % 1016,3 hPa 0,0 l/m 0 min 0 min 22 W/m 4,5 km/h (1 Bft) 93,48 %
20.08.2018 07:28 18,8 C 18,3 C 17,8 C 91 % 1016,4 hPa 0,0 l/m 0 min 0 min 24 W/m 4,5 km/h (1 Bft) 93,62 %
20.08.2018 07:30 18,8 C 18,3 C 17,8 C 91 % 1016,4 hPa 0,0 l/m 0 min 0 min 25 W/m 2,3 km/h (1 Bft) 93,62 %
20.08.2018 07:32 18,8 C 18,3 C 17,8 C 91 % 1016,4 hPa 0,0 l/m 0 min 0 min 23 W/m 2,3 km/h (1 Bft) 95,74 %
20.08.2018 07:34 18,8 C 18,3 C 17,8 C 91 % 1016,4 hPa 0,0 l/m 0 min 0 min 24 W/m 2,3 km/h (1 Bft) 95,74 %
20.08.2018 07:36 18,8 C 18,3 C 17,8 C 91 % 1016,4 hPa 0,0 l/m 0 min 0 min 25 W/m 4,5 km/h (1 Bft) 95,65 %
20.08.2018 07:38 18,8 C 18,3 C 17,8 C 91 % 1016,4 hPa 0,0 l/m 0 min 0 min 25 W/m 2,3 km/h (1 Bft) 100,00 %
20.08.2018 07:40 18,9 C 18,3 C 17,8 C 91 % 1016,4 hPa 0,0 l/m 0 min 0 min 23 W/m 6,8 km/h (2 Bft) 100,00 %
20.08.2018 07:42 18,9 C 18,3 C 17,8 C 91 % 1016,4 hPa 0,0 l/m 0 min 0 min 23 W/m 4,5 km/h (1 Bft) 97,87 %
20.08.2018 07:44 18,9 C 18,3 C 17,8 C 91 % 1016,5 hPa 0,0 l/m 0 min 0 min 23 W/m 6,8 km/h (2 Bft) 97,87 %
20.08.2018 07:46 18,9 C 18,3 C 17,8 C 91 % 1016,5 hPa 0,0 l/m 0 min 0 min 25 W/m 4,5 km/h (1 Bft) 100,00 %
20.08.2018 07:48 18,9 C 18,3 C 17,8 C 91 % 1016,5 hPa 0,0 l/m 0 min 0 min 26 W/m 4,5 km/h (1 Bft) 100,00 %
20.08.2018 07:50 18,9 C 18,3 C 17,8 C 91 % 1016,5 hPa 0,0 l/m 0 min 0 min 26 W/m 4,5 km/h (1 Bft) 98,00 %
20.08.2018 07:52 18,9 C 18,3 C 17,8 C 91 % 1016,5 hPa 0,0 l/m 0 min 0 min 28 W/m 6,8 km/h (2 Bft) 97,83 %
20.08.2018 07:54 18,9 C 18,3 C 17,8 C 91 % 1016,5 hPa 0,0 l/m 0 min 0 min 28 W/m 2,3 km/h (1 Bft) 100,00 %
20.08.2018 07:56 18,9 C 18,3 C 17,8 C 91 % 1016,5 hPa 0,0 l/m 0 min 0 min 23 W/m 4,5 km/h (1 Bft) 97,87 %
20.08.2018 07:58 18,9 C 18,3 C 17,8 C 91 % 1016,5 hPa 0,0 l/m 0 min 0 min 23 W/m 4,5 km/h (1 Bft) 100,00 %
20.08.2018 08:00 18,9 C 18,3 C 18,3 C 91 % 1016,5 hPa 0,0 l/m 0 min 0 min 24 W/m 2,3 km/h (1 Bft) 100,00 %
20.08.2018 08:02 18,9 C 18,3 C 18,3 C 91 % 1016,5 hPa 0,0 l/m 0 min 0 min 21 W/m 2,3 km/h (1 Bft) 95,74 %
20.08.2018 08:04 19,0 C 18,3 C 18,3 C 91 % 1016,5 hPa 0,0 l/m 0 min 0 min 21 W/m 4,5 km/h (1 Bft) 97,83 %
20.08.2018 08:06 19,0 C 18,3 C 18,3 C 91 % 1016,5 hPa 0,0 l/m 0 min 0 min 25 W/m 2,3 km/h (1 Bft) 100,00 %
20.08.2018 08:08 19,0 C 18,3 C 18,3 C 91 % 1016,6 hPa 0,0 l/m 0 min 0 min 25 W/m 4,5 km/h (1 Bft) 100,00 %
20.08.2018 08:10 19,0 C 18,3 C 18,3 C 91 % 1016,6 hPa 0,0 l/m 0 min 0 min 26 W/m 4,5 km/h (1 Bft) 100,00 %
20.08.2018 08:12 19,0 C 18,3 C 18,3 C 91 % 1016,6 hPa 0,0 l/m 0 min 0 min 28 W/m 4,5 km/h (1 Bft) 100,00 %
20.08.2018 08:14 19,0 C 18,3 C 18,3 C 91 % 1016,6 hPa 0,0 l/m 0 min 0 min 29 W/m 9,0 km/h (2 Bft) 100,00 %
20.08.2018 08:16 19,0 C 18,3 C 18,3 C 91 % 1016,6 hPa 0,0 l/m 0 min 0 min 28 W/m 4,5 km/h (1 Bft) 100,00 %
20.08.2018 08:18 19,0 C 18,3 C 18,3 C 91 % 1016,7 hPa 0,0 l/m 0 min 0 min 25 W/m 2,3 km/h (1 Bft) 100,00 %
20.08.2018 08:20 19,1 C 18,9 C 18,3 C 91 % 1016,7 hPa 0,0 l/m 0 min 0 min 28 W/m 6,8 km/h (2 Bft) 100,00 %
20.08.2018 08:22 19,1 C 18,9 C 18,3 C 91 % 1016,7 hPa 0,0 l/m 0 min 0 min 34 W/m 4,5 km/h (1 Bft) 100,00 %
20.08.2018 08:24 19,1 C 18,9 C 18,3 C 91 % 1016,7 hPa 0,0 l/m 0 min 0 min 37 W/m 13,5 km/h (3 Bft) 100,00 %
20.08.2018 08:26 19,1 C 18,9 C 18,3 C 91 % 1016,8 hPa 0,0 l/m 0 min 0 min 37 W/m 4,5 km/h (1 Bft) 100,00 %
20.08.2018 08:28 19,1 C 18,9 C 18,3 C 91 % 1016,7 hPa 0,0 l/m 0 min 0 min 37 W/m 9,0 km/h (2 Bft) 100,00 %
20.08.2018 08:30 19,1 C 18,9 C 18,3 C 91 % 1016,7 hPa 0,0 l/m 0 min 0 min 41 W/m 4,5 km/h (1 Bft) 100,00 %
20.08.2018 08:32 19,1 C 18,9 C 18,3 C 91 % 1016,7 hPa 0,0 l/m 0 min 0 min 46 W/m 4,5 km/h (1 Bft) 100,00 %
20.08.2018 08:34 19,1 C 18,9 C 18,3 C 91 % 1016,8 hPa 0,0 l/m 0 min 0 min 46 W/m 4,5 km/h (1 Bft) 100,00 %
20.08.2018 08:36 19,1 C 18,9 C 18,3 C 91 % 1016,8 hPa 0,0 l/m 0 min 0 min 48 W/m 2,3 km/h (1 Bft) 100,00 %
20.08.2018 08:38 19,2 C 18,9 C 18,3 C 91 % 1016,7 hPa 0,0 l/m 0 min 0 min 47 W/m 4,5 km/h (1 Bft) 100,00 %
20.08.2018 08:40 19,2 C 18,9 C 18,3 C 91 % 1016,8 hPa 0,0 l/m 0 min 0 min 49 W/m 2,3 km/h (1 Bft) 100,00 %
20.08.2018 08:42 19,2 C 18,9 C 18,3 C 91 % 1016,8 hPa 0,0 l/m 0 min 0 min 44 W/m 4,5 km/h (1 Bft) 100,00 %
20.08.2018 08:44 19,2 C 18,9 C 18,3 C 91 % 1016,8 hPa 0,0 l/m 0 min 0 min 42 W/m 4,5 km/h (1 Bft) 100,00 %
20.08.2018 08:46 19,2 C 18,9 C 18,3 C 91 % 1016,8 hPa 0,0 l/m 0 min 0 min 45 W/m 6,8 km/h (2 Bft) 100,00 %
20.08.2018 08:48 19,2 C 18,9 C 18,3 C 91 % 1016,8 hPa 0,0 l/m 0 min 0 min 53 W/m 4,5 km/h (1 Bft) 100,00 %
20.08.2018 08:50 19,2 C 18,9 C 18,3 C 91 % 1016,8 hPa 0,0 l/m 0 min 0 min 53 W/m 2,3 km/h (1 Bft) 100,00 %
20.08.2018 08:52 19,2 C 18,9 C 18,3 C 91 % 1016,8 hPa 0,0 l/m 0 min 0 min 48 W/m 4,5 km/h (1 Bft) 100,00 %
20.08.2018 08:54 19,2 C 18,9 C 18,3 C 92 % 1016,9 hPa 0,0 l/m 0 min 0 min 50 W/m 4,5 km/h (1 Bft) 97,87 %
20.08.2018 08:56 19,2 C 18,9 C 18,3 C 92 % 1016,8 hPa 0,0 l/m 0 min 0 min 55 W/m 4,5 km/h (1 Bft) 100,00 %
20.08.2018 08:58 19,3 C 18,9 C 18,3 C 92 % 1016,9 hPa 0,0 l/m 0 min 0 min 57 W/m 2,3 km/h (1 Bft) 97,87 %
20.08.2018 09:00 19,2 C 18,9 C 18,3 C 92 % 1016,9 hPa 0,0 l/m 0 min 0 min 58 W/m 4,5 km/h (1 Bft) 100,00 %
20.08.2018 09:02 19,3 C 18,9 C 18,3 C 92 % 1016,8 hPa 0,0 l/m 0 min 0 min 57 W/m 2,3 km/h (1 Bft) 100,00 %
20.08.2018 09:04 19,3 C 18,9 C 18,3 C 92 % 1016,9 hPa 0,0 l/m 0 min 0 min 54 W/m 9,0 km/h (2 Bft) 100,00 %
20.08.2018 09:06 19,3 C 18,9 C 18,3 C 92 % 1016,9 hPa 0,0 l/m 0 min 0 min 53 W/m 4,5 km/h (1 Bft) 100,00 %
20.08.2018 09:08 19,3 C 18,9 C 18,3 C 92 % 1017,0 hPa 0,0 l/m 0 min 0 min 53 W/m 4,5 km/h (1 Bft) 100,00 %
20.08.2018 09:10 19,3 C 18,9 C 18,3 C 92 % 1017,0 hPa 0,0 l/m 0 min 0 min 50 W/m 4,5 km/h (1 Bft) 100,00 %
20.08.2018 09:12 19,3 C 18,9 C 18,3 C 92 % 1017,0 hPa 0,0 l/m 0 min 0 min 46 W/m 4,5 km/h (1 Bft) 100,00 %
20.08.2018 09:14 19,3 C 18,9 C 18,3 C 92 % 1017,1 hPa 0,0 l/m 0 min 0 min 38 W/m 4,5 km/h (1 Bft) 100,00 %
20.08.2018 09:16 19,3 C 18,9 C 18,3 C 92 % 1017,1 hPa 0,0 l/m 0 min 0 min 37 W/m 2,3 km/h (1 Bft) 100,00 %
20.08.2018 09:18 19,4 C 18,9 C 18,3 C 92 % 1017,1 hPa 0,0 l/m 0 min 0 min 38 W/m 4,5 km/h (1 Bft) 100,00 %
20.08.2018 09:20 19,4 C 18,9 C 18,3 C 92 % 1017,2 hPa 0,0 l/m 0 min 0 min 37 W/m 4,5 km/h (1 Bft) 97,87 %
20.08.2018 09:22 19,4 C 18,9 C 18,3 C 92 % 1017,1 hPa 0,0 l/m 0 min 0 min 39 W/m 4,5 km/h (1 Bft) 100,00 %
20.08.2018 09:24 19,4 C 18,9 C 18,3 C 92 % 1017,2 hPa 0,0 l/m 0 min 0 min 43 W/m 4,5 km/h (1 Bft) 97,87 %
20.08.2018 09:26 19,4 C 18,9 C 18,3 C 92 % 1017,2 hPa 0,0 l/m 0 min 0 min 38 W/m 2,3 km/h (1 Bft) 95,65 %
20.08.2018 09:28 19,4 C 18,9 C 18,3 C 92 % 1017,3 hPa 0,0 l/m 0 min 0 min 33 W/m 6,8 km/h (2 Bft) 100,00 %
20.08.2018 09:30 19,4 C 18,9 C 18,3 C 92 % 1017,3 hPa 0,0 l/m 0 min 0 min 32 W/m 4,5 km/h (1 Bft) 100,00 %
20.08.2018 09:32 19,4 C 18,9 C 18,3 C 92 % 1017,4 hPa 0,0 l/m 0 min 0 min 27 W/m 4,5 km/h (1 Bft) 97,87 %
20.08.2018 09:34 19,4 C 18,9 C 18,3 C 92 % 1017,3 hPa 0,0 l/m 0 min 0 min 25 W/m 6,8 km/h (2 Bft) 95,74 %
20.08.2018 09:36 19,4 C 18,9 C 18,3 C 92 % 1017,4 hPa 0,0 l/m 0 min 0 min 25 W/m 4,5 km/h (1 Bft) 93,75 %
20.08.2018 09:38 19,4 C 18,9 C 18,3 C 92 % 1017,4 hPa 0,0 l/m 0 min 0 min 26 W/m 6,8 km/h (2 Bft) 95,65 %
20.08.2018 09:40 19,4 C 18,9 C 18,3 C 92 % 1017,4 hPa 0,0 l/m 0 min 0 min 25 W/m 4,5 km/h (1 Bft) 97,87 %
20.08.2018 09:42 19,4 C 18,9 C 18,3 C 92 % 1017,5 hPa 0,0 l/m 0 min 0 min 24 W/m 4,5 km/h (1 Bft) 93,62 %
20.08.2018 09:44 19,4 C 18,9 C 18,3 C 92 % 1017,4 hPa 0,0 l/m 0 min 2 min 28 W/m 4,5 km/h (1 Bft) 95,74 %
20.08.2018 09:46 19,4 C 18,3 C 18,3 C 92 % 1017,4 hPa 0,0 l/m 0 min 2 min 41 W/m 4,5 km/h (1 Bft) 95,74 %
20.08.2018 09:48 19,4 C 18,3 C 17,8 C 92 % 1017,4 hPa 0,0 l/m 0 min 2 min 59 W/m 4,5 km/h (1 Bft) 95,74 %
20.08.2018 09:50 19,4 C 17,8 C 17,8 C 92 % 1017,5 hPa 0,0 l/m 0 min 2 min 63 W/m 4,5 km/h (1 Bft) 95,65 %
20.08.2018 09:52 19,4 C 17,8 C 17,8 C 92 % 1017,4 hPa 0,0 l/m 0 min 2 min 60 W/m 6,8 km/h (2 Bft) 93,75 %
20.08.2018 09:54 19,4 C 17,8 C 17,8 C 92 % 1017,4 hPa 0,0 l/m 0 min 2 min 55 W/m 6,8 km/h (2 Bft) 95,74 %
20.08.2018 09:56 19,4 C 17,8 C 17,8 C 92 % 1017,5 hPa 0,0 l/m 0 min 0 min 69 W/m 2,3 km/h (1 Bft) 93,62 %
20.08.2018 09:58 19,4 C 17,8 C 17,8 C 92 % 1017,5 hPa 0,0 l/m 0 min 0 min 72 W/m 4,5 km/h (1 Bft) 95,74 %
20.08.2018 10:00 19,4 C 17,8 C 17,8 C 92 % 1017,5 hPa 0,0 l/m 0 min 0 min 79 W/m 6,8 km/h (2 Bft) 95,65 %
20.08.2018 10:02 19,4 C 17,8 C 17,8 C 92 % 1017,5 hPa 0,0 l/m 0 min 2 min 82 W/m 2,3 km/h (1 Bft) 95,74 %
20.08.2018 10:04 19,4 C 17,8 C 17,8 C 93 % 1017,5 hPa 0,0 l/m 0 min 0 min 92 W/m 2,3 km/h (1 Bft) 93,62 %
20.08.2018 10:06 19,4 C 18,3 C 18,3 C 93 % 1017,5 hPa 0,0 l/m 0 min 0 min 86 W/m 4,5 km/h (1 Bft) 91,67 %
20.08.2018 10:08 19,4 C 18,3 C 18,3 C 93 % 1017,6 hPa 0,0 l/m 0 min 0 min 85 W/m 4,5 km/h (1 Bft) 91,49 %
20.08.2018 10:10 19,4 C 18,3 C 18,3 C 93 % 1017,5 hPa 0,0 l/m 0 min 0 min 84 W/m 2,3 km/h (1 Bft) 91,49 %
20.08.2018 10:12 19,5 C 18,3 C 18,3 C 93 % 1017,6 hPa 0,0 l/m 0 min 0 min 98 W/m 4,5 km/h (1 Bft) 93,48 %
20.08.2018 10:14 19,5 C 18,3 C 18,3 C 93 % 1017,6 hPa 0,0 l/m 0 min 0 min 87 W/m 4,5 km/h (1 Bft) 93,62 %
20.08.2018 10:16 19,4 C 18,3 C 18,3 C 93 % 1017,6 hPa 0,0 l/m 0 min 0 min 71 W/m 9,0 km/h (2 Bft) 91,49 %
20.08.2018 10:18 19,4 C 18,3 C 18,3 C 93 % 1017,6 hPa 0,0 l/m 0 min 0 min 93 W/m 4,5 km/h (1 Bft) 93,62 %
20.08.2018 10:20 19,4 C 18,3 C 18,3 C 93 % 1017,6 hPa 0,0 l/m 0 min 0 min 94 W/m 2,3 km/h (1 Bft) 93,62 %
20.08.2018 10:22 19,5 C 18,3 C 18,3 C 93 % 1017,6 hPa 0,0 l/m 0 min 0 min 78 W/m 2,3 km/h (1 Bft) 95,74 %
20.08.2018 10:24 19,4 C 18,3 C 18,3 C 93 % 1017,6 hPa 0,0 l/m 0 min 0 min 70 W/m 4,5 km/h (1 Bft) 95,65 %
20.08.2018 10:26 19,5 C 18,9 C 18,3 C 93 % 1017,7 hPa 0,0 l/m 0 min 0 min 68 W/m 2,3 km/h (1 Bft) 91,49 %
20.08.2018 10:28 19,5 C 18,9 C 18,3 C 94 % 1017,7 hPa 0,0 l/m 0 min 0 min 63 W/m 0,0 km/h (0 Bft) 95,74 %
20.08.2018 10:30 19,5 C 18,9 C 18,3 C 94 % 1017,7 hPa 0,0 l/m 0 min 0 min 62 W/m 0,0 km/h (0 Bft) 95,74 %
20.08.2018 10:32 19,5 C 18,9 C 18,3 C 94 % 1017,7 hPa 0,0 l/m 0 min 0 min 68 W/m 0,0 km/h (0 Bft) 95,74 %
20.08.2018 10:34 19,5 C 18,9 C 18,3 C 94 % 1017,6 hPa 0,0 l/m 0 min 0 min 80 W/m 0,0 km/h (0 Bft) 95,74 %
20.08.2018 10:38 19,5 C 18,9 C 18,3 C 94 % 1017,6 hPa 0,0 l/m 0 min 0 min 78 W/m 6,8 km/h (2 Bft) 97,56 %
20.08.2018 10:40 19,5 C 18,9 C 18,3 C 94 % 1017,6 hPa 0,0 l/m 0 min 0 min 87 W/m 2,3 km/h (1 Bft) 100,00 %
20.08.2018 10:42 19,5 C 18,9 C 18,3 C 94 % 1017,7 hPa 0,0 l/m 0 min 0 min 79 W/m 4,5 km/h (1 Bft) 97,87 %
20.08.2018 10:44 19,5 C 18,9 C 18,3 C 94 % 1017,8 hPa 0,0 l/m 0 min 0 min 72 W/m 6,8 km/h (2 Bft) 97,87 %
20.08.2018 10:46 19,5 C 18,9 C 18,3 C 94 % 1017,7 hPa 0,0 l/m 0 min 0 min 68 W/m 2,3 km/h (1 Bft) 97,83 %
20.08.2018 10:48 19,5 C 18,9 C 18,3 C 94 % 1017,7 hPa 0,0 l/m 0 min 0 min 73 W/m 6,8 km/h (2 Bft) 97,87 %
20.08.2018 10:50 19,5 C 18,9 C 18,3 C 94 % 1017,7 hPa 0,0 l/m 0 min 0 min 72 W/m 2,3 km/h (1 Bft) 97,87 %
20.08.2018 10:52 19,5 C 18,9 C 18,3 C 94 % 1017,7 hPa 0,0 l/m 0 min 0 min 73 W/m 2,3 km/h (1 Bft) 97,87 %
20.08.2018 10:54 19,5 C 18,9 C 18,3 C 94 % 1017,7 hPa 0,0 l/m 0 min 0 min 81 W/m 2,3 km/h (1 Bft) 97,87 %
20.08.2018 10:56 19,5 C 19,4 C 18,3 C 94 % 1017,7 hPa 0,0 l/m 0 min 0 min 78 W/m 4,5 km/h (1 Bft) 97,87 %
20.08.2018 10:58 19,5 C 18,9 C 18,3 C 94 % 1017,7 hPa 0,0 l/m 0 min 0 min 69 W/m 4,5 km/h (1 Bft) 97,83 %
20.08.2018 11:00 19,5 C 18,9 C 18,3 C 94 % 1017,9 hPa 0,0 l/m 0 min 0 min 69 W/m 2,3 km/h (1 Bft) 97,87 %
20.08.2018 11:02 19,5 C 18,9 C 18,3 C 94 % 1017,8 hPa 0,0 l/m 0 min 0 min 65 W/m 2,3 km/h (1 Bft) 97,87 %
20.08.2018 11:04 19,5 C 18,9 C 18,3 C 94 % 1017,8 hPa 0,0 l/m 0 min 0 min 71 W/m 4,5 km/h (1 Bft) 97,87 %
20.08.2018 11:06 19,5 C 18,9 C 18,3 C 94 % 1017,7 hPa 0,0 l/m 0 min 0 min 75 W/m 2,3 km/h (1 Bft) 97,87 %
20.08.2018 11:08 19,6 C 18,9 C 18,3 C 94 % 1017,7 hPa 0,0 l/m 0 min 0 min 78 W/m 2,3 km/h (1 Bft) 100,00 %
20.08.2018 11:10 19,5 C 18,9 C 18,3 C 94 % 1017,8 hPa 0,0 l/m 0 min 0 min 77 W/m 4,5 km/h (1 Bft) 100,00 %
20.08.2018 11:12 19,6 C 18,9 C 18,3 C 94 % 1017,8 hPa 0,0 l/m 0 min 0 min 76 W/m 2,3 km/h (1 Bft) 100,00 %
20.08.2018 11:14 19,6 C 19,4 C 18,3 C 94 % 1017,8 hPa 0,0 l/m 0 min 0 min 76 W/m 2,3 km/h (1 Bft) 100,00 %
20.08.2018 11:16 19,6 C 19,4 C 18,3 C 94 % 1017,8 hPa 0,0 l/m 0 min 0 min 72 W/m 2,3 km/h (1 Bft) 97,87 %
20.08.2018 11:18 19,6 C 19,4 C 18,3 C 94 % 1017,9 hPa 0,0 l/m 0 min 0 min 75 W/m 2,3 km/h (1 Bft) 100,00 %
20.08.2018 11:20 19,6 C 19,4 C 18,9 C 94 % 1017,9 hPa 0,0 l/m 0 min 0 min 81 W/m 0,0 km/h (0 Bft) 100,00 %
20.08.2018 11:22 19,6 C 19,4 C 18,9 C 94 % 1017,8 hPa 0,0 l/m 0 min 0 min 81 W/m 0,0 km/h (0 Bft) 100,00 %
20.08.2018 11:24 19,7 C 19,4 C 18,9 C 94 % 1017,9 hPa 0,0 l/m 0 min 0 min 83 W/m 4,5 km/h (1 Bft) 97,87 %
20.08.2018 11:26 19,7 C 19,4 C 18,9 C 94 % 1017,9 hPa 0,0 l/m 0 min 0 min 79 W/m 2,3 km/h (1 Bft) 97,87 %
20.08.2018 11:28 19,7 C 19,4 C 18,9 C 94 % 1017,9 hPa 0,0 l/m 0 min 0 min 85 W/m 4,5 km/h (1 Bft) 100,00 %
20.08.2018 11:30 19,7 C 20,0 C 18,9 C 94 % 1017,9 hPa 0,0 l/m 0 min 0 min 92 W/m 4,5 km/h (1 Bft) 100,00 %
20.08.2018 11:32 19,7 C 20,0 C 18,9 C 94 % 1017,9 hPa 0,0 l/m 0 min 0 min 95 W/m 4,5 km/h (1 Bft) 100,00 %
20.08.2018 11:34 19,8 C 20,0 C 18,9 C 94 % 1017,9 hPa 0,0 l/m 0 min 0 min 97 W/m 2,3 km/h (1 Bft) 100,00 %
20.08.2018 11:36 19,8 C 19,4 C 18,9 C 94 % 1017,8 hPa 0,0 l/m 0 min 0 min 88 W/m 4,5 km/h (1 Bft) 100,00 %
20.08.2018 11:38 19,8 C 20,0 C 18,9 C 94 % 1017,8 hPa 0,0 l/m 0 min 0 min 93 W/m 4,5 km/h (1 Bft) 100,00 %
20.08.2018 11:40 19,8 C 20,0 C 18,9 C 94 % 1017,9 hPa 0,0 l/m 0 min 0 min 107 W/m 4,5 km/h (1 Bft) 100,00 %
20.08.2018 11:42 19,8 C 20,0 C 18,9 C 94 % 1017,9 hPa 0,0 l/m 0 min 0 min 106 W/m 2,3 km/h (1 Bft) 100,00 %
20.08.2018 11:44 19,8 C 20,0 C 18,9 C 94 % 1017,9 hPa 0,0 l/m 0 min 0 min 121 W/m 2,3 km/h (1 Bft) 100,00 %
20.08.2018 11:46 19,8 C 20,0 C 18,9 C 94 % 1017,9 hPa 0,0 l/m 0 min 0 min 137 W/m 4,5 km/h (1 Bft) 100,00 %
20.08.2018 11:48 19,9 C 20,0 C 18,9 C 94 % 1017,9 hPa 0,0 l/m 0 min 0 min 115 W/m 2,3 km/h (1 Bft) 97,87 %
20.08.2018 11:50 19,9 C 20,0 C 18,9 C 94 % 1017,9 hPa 0,0 l/m 0 min 0 min 110 W/m 2,3 km/h (1 Bft) 100,00 %
20.08.2018 11:52 19,9 C 20,0 C 18,9 C 94 % 1017,9 hPa 0,0 l/m 0 min 0 min 114 W/m 2,3 km/h (1 Bft) 100,00 %
20.08.2018 11:54 19,9 C 20,0 C 18,9 C 94 % 1017,9 hPa 0,0 l/m 0 min 0 min 116 W/m 4,5 km/h (1 Bft) 100,00 %
20.08.2018 11:56 19,9 C 20,0 C 18,9 C 94 % 1018,0 hPa 0,0 l/m 0 min 0 min 129 W/m 6,8 km/h (2 Bft) 100,00 %
20.08.2018 11:58 19,9 C 20,0 C 19,4 C 94 % 1017,9 hPa 0,0 l/m 0 min 0 min 150 W/m 6,8 km/h (2 Bft) 100,00 %
20.08.2018 12:00 20,0 C 20,0 C 19,4 C 94 % 1017,9 hPa 0,0 l/m 0 min 0 min 145 W/m 4,5 km/h (1 Bft) 100,00 %
20.08.2018 12:02 20,0 C 20,0 C 19,4 C 94 % 1017,9 hPa 0,0 l/m 0 min 0 min 133 W/m 2,3 km/h (1 Bft) 100,00 %
20.08.2018 12:04 20,0 C 20,6 C 19,4 C 94 % 1018,0 hPa 0,0 l/m 0 min 0 min 171 W/m 4,5 km/h (1 Bft) 100,00 %
20.08.2018 12:06 20,1 C 20,6 C 19,4 C 94 % 1017,9 hPa 0,0 l/m 0 min 0 min 217 W/m 2,3 km/h (1 Bft) 100,00 %
20.08.2018 12:08 20,1 C 20,6 C 19,4 C 94 % 1017,9 hPa 0,0 l/m 0 min 0 min 221 W/m 4,5 km/h (1 Bft) 100,00 %
20.08.2018 12:10 20,1 C 21,1 C 19,4 C 94 % 1017,9 hPa 0,0 l/m 0 min 0 min 206 W/m 6,8 km/h (2 Bft) 100,00 %
20.08.2018 12:12 20,2 C 21,1 C 19,4 C 94 % 1017,9 hPa 0,0 l/m 0 min 0 min 214 W/m 4,5 km/h (1 Bft) 97,87 %
20.08.2018 12:14 20,2 C 21,1 C 19,4 C 94 % 1017,9 hPa 0,0 l/m 0 min 0 min 244 W/m 4,5 km/h (1 Bft) 97,87 %
20.08.2018 12:16 20,2 C 21,1 C 20,0 C 94 % 1017,9 hPa 0,0 l/m 0 min 0 min 281 W/m 4,5 km/h (1 Bft) 95,74 %
20.08.2018 12:18 20,3 C 21,1 C 20,0 C 94 % 1017,9 hPa 0,0 l/m 0 min 0 min 252 W/m 4,5 km/h (1 Bft) 95,74 %
20.08.2018 12:20 20,3 C 21,1 C 20,0 C 94 % 1017,9 hPa 0,0 l/m 0 min 0 min 233 W/m 4,5 km/h (1 Bft) 97,83 %
20.08.2018 12:22 20,3 C 21,7 C 20,0 C 94 % 1017,9 hPa 0,0 l/m 0 min 0 min 251 W/m 4,5 km/h (1 Bft) 97,87 %
20.08.2018 12:24 20,4 C 21,7 C 20,0 C 94 % 1017,9 hPa 0,0 l/m 0 min 0 min 269 W/m 4,5 km/h (1 Bft) 97,87 %
20.08.2018 12:26 20,5 C 22,2 C 20,0 C 94 % 1017,7 hPa 0,0 l/m 0 min 0 min 296 W/m 6,8 km/h (2 Bft) 97,87 %
20.08.2018 12:28 20,6 C 22,2 C 20,0 C 93 % 1017,7 hPa 0,0 l/m 0 min 0 min 313 W/m 4,5 km/h (1 Bft) 97,87 %
20.08.2018 12:30 20,6 C 22,2 C 20,0 C 93 % 1017,7 hPa 0,0 l/m 0 min 0 min 319 W/m 4,5 km/h (1 Bft) 97,87 %
20.08.2018 12:32 20,7 C 22,2 C 20,6 C 93 % 1017,7 hPa 0,0 l/m 0 min 0 min 353 W/m 6,8 km/h (2 Bft) 93,48 %
20.08.2018 12:34 20,7 C 22,2 C 20,6 C 93 % 1017,8 hPa 0,0 l/m 2 min 0 min 371 W/m 6,8 km/h (2 Bft) 95,74 %
20.08.2018 12:36 20,8 C 22,8 C 20,6 C 93 % 1017,7 hPa 0,0 l/m 2 min 0 min 382 W/m 6,8 km/h (2 Bft) 95,74 %
20.08.2018 12:38 20,8 C 22,8 C 20,6 C 93 % 1017,8 hPa 0,0 l/m 2 min 0 min 397 W/m 6,8 km/h (2 Bft) 94,23 %
20.08.2018 12:40 20,9 C 23,3 C 20,6 C 93 % 1017,8 hPa 0,0 l/m 2 min 0 min 396 W/m 6,8 km/h (2 Bft) 95,56 %
20.08.2018 12:42 21,0 C 23,3 C 20,6 C 93 % 1017,7 hPa 0,0 l/m 2 min 0 min 379 W/m 4,5 km/h (1 Bft) 95,65 %
20.08.2018 12:44 21,0 C 23,3 C 20,6 C 92 % 1017,8 hPa 0,0 l/m 0 min 0 min 355 W/m 4,5 km/h (1 Bft) 97,87 %
20.08.2018 12:46 21,1 C 23,3 C 20,6 C 92 % 1017,7 hPa 0,0 l/m 0 min 0 min 341 W/m 4,5 km/h (1 Bft) 93,62 %
20.08.2018 12:48 21,2 C 22,8 C 20,6 C 92 % 1017,7 hPa 0,0 l/m 0 min 0 min 328 W/m 6,8 km/h (2 Bft) 95,74 %
20.08.2018 12:50 21,2 C 22,8 C 20,6 C 91 % 1017,8 hPa 0,0 l/m 0 min 0 min 327 W/m 4,5 km/h (1 Bft) 93,62 %
20.08.2018 12:52 21,3 C 22,8 C 20,6 C 91 % 1017,8 hPa 0,0 l/m 0 min 0 min 346 W/m 4,5 km/h (1 Bft) 95,74 %
20.08.2018 12:54 21,3 C 22,8 C 21,1 C 91 % 1017,8 hPa 0,0 l/m 0 min 0 min 353 W/m 6,8 km/h (2 Bft) 97,83 %
20.08.2018 12:56 21,4 C 23,3 C 21,1 C 90 % 1017,8 hPa 0,0 l/m 0 min 0 min 345 W/m 4,5 km/h (1 Bft) 97,87 %
20.08.2018 12:58 21,4 C 23,3 C 21,1 C 90 % 1017,8 hPa 0,0 l/m 0 min 0 min 325 W/m 4,5 km/h (1 Bft) 95,74 %
20.08.2018 13:00 21,5 C 23,3 C 21,1 C 90 % 1017,7 hPa 0,0 l/m 0 min 0 min 315 W/m 4,5 km/h (1 Bft) 97,87 %
20.08.2018 13:02 21,6 C 23,3 C 21,1 C 90 % 1017,7 hPa 0,0 l/m 0 min 0 min 340 W/m 2,3 km/h (1 Bft) 95,74 %
20.08.2018 13:04 21,7 C 23,3 C 21,1 C 89 % 1017,7 hPa 0,0 l/m 0 min 0 min 358 W/m 4,5 km/h (1 Bft) 97,87 %
20.08.2018 13:06 21,7 C 23,3 C 21,1 C 89 % 1017,7 hPa 0,0 l/m 0 min 0 min 362 W/m 6,8 km/h (2 Bft) 95,65 %
20.08.2018 13:08 21,8 C 23,3 C 21,1 C 88 % 1017,7 hPa 0,0 l/m 0 min 0 min 360 W/m 4,5 km/h (1 Bft) 97,87 %
20.08.2018 13:10 21,8 C 23,3 C 21,1 C 88 % 1017,8 hPa 0,0 l/m 0 min 0 min 332 W/m 4,5 km/h (1 Bft) 97,87 %
20.08.2018 13:12 21,9 C 22,8 C 21,1 C 88 % 1017,8 hPa 0,0 l/m 0 min 0 min 296 W/m 4,5 km/h (1 Bft) 95,74 %
20.08.2018 13:14 21,9 C 22,8 C 21,1 C 87 % 1017,8 hPa 0,0 l/m 0 min 0 min 315 W/m 4,5 km/h (1 Bft) 97,87 %
20.08.2018 13:16 22,0 C 23,3 C 21,1 C 87 % 1017,8 hPa 0,0 l/m 0 min 0 min 360 W/m 4,5 km/h (1 Bft) 97,83 %
20.08.2018 13:18 22,1 C 23,9 C 21,1 C 87 % 1017,8 hPa 0,0 l/m 0 min 0 min 377 W/m 4,5 km/h (1 Bft) 93,62 %
20.08.2018 13:20 22,1 C 23,9 C 21,7 C 87 % 1017,8 hPa 0,0 l/m 0 min 0 min 373 W/m 6,8 km/h (2 Bft) 97,87 %
20.08.2018 13:22 22,2 C 23,9 C 21,7 C 87 % 1017,8 hPa 0,0 l/m 0 min 0 min 360 W/m 6,8 km/h (2 Bft) 97,87 %
20.08.2018 13:24 22,2 C 23,9 C 21,7 C 87 % 1017,8 hPa 0,0 l/m 0 min 0 min 340 W/m 4,5 km/h (1 Bft) 95,74 %
20.08.2018 13:26 22,3 C 23,9 C 21,7 C 86 % 1017,8 hPa 0,0 l/m 0 min 0 min 332 W/m 4,5 km/h (1 Bft) 95,74 %
20.08.2018 13:28 22,3 C 23,3 C 21,1 C 86 % 1017,7 hPa 0,0 l/m 0 min 0 min 349 W/m 4,5 km/h (1 Bft) 95,65 %
20.08.2018 13:30 22,4 C 23,9 C 21,7 C 86 % 1017,8 hPa 0,0 l/m 0 min 0 min 359 W/m 4,5 km/h (1 Bft) 95,74 %
20.08.2018 13:32 22,4 C 23,9 C 21,7 C 86 % 1017,7 hPa 0,0 l/m 0 min 0 min 348 W/m 4,5 km/h (1 Bft) 95,74 %
20.08.2018 13:34 22,5 C 23,9 C 21,7 C 85 % 1017,8 hPa 0,0 l/m 0 min 0 min 353 W/m 4,5 km/h (1 Bft) 95,74 %
20.08.2018 13:36 22,5 C 23,9 C 21,7 C 85 % 1017,7 hPa 0,0 l/m 0 min 0 min 378 W/m 4,5 km/h (1 Bft) 95,74 %
20.08.2018 13:38 22,6 C 24,4 C 21,7 C 85 % 1017,7 hPa 0,0 l/m 2 min 0 min 396 W/m 4,5 km/h (1 Bft) 95,74 %
20.08.2018 13:40 22,7 C 24,4 C 21,7 C 85 % 1017,7 hPa 0,0 l/m 2 min 0 min 388 W/m 4,5 km/h (1 Bft) 95,65 %
20.08.2018 13:42 22,7 C 24,4 C 21,7 C 85 % 1017,7 hPa 0,0 l/m 2 min 0 min 383 W/m 4,5 km/h (1 Bft) 95,74 %
20.08.2018 13:44 22,7 C 24,4 C 21,7 C 84 % 1017,7 hPa 0,0 l/m 2 min 0 min 385 W/m 6,8 km/h (2 Bft) 95,74 %
20.08.2018 13:46 22,8 C 24,4 C 21,7 C 84 % 1017,7 hPa 0,0 l/m 2 min 0 min 382 W/m 4,5 km/h (1 Bft) 95,74 %
20.08.2018 13:48 22,8 C 24,4 C 21,7 C 84 % 1017,7 hPa 0,0 l/m 2 min 0 min 391 W/m 6,8 km/h (2 Bft) 95,74 %
20.08.2018 13:50 22,9 C 24,4 C 21,7 C 84 % 1017,6 hPa 0,0 l/m 2 min 0 min 390 W/m 6,8 km/h (2 Bft) 93,62 %
20.08.2018 13:52 23,0 C 25,0 C 22,2 C 83 % 1017,6 hPa 0,0 l/m 2 min 0 min 408 W/m 6,8 km/h (2 Bft) 97,83 %
20.08.2018 13:54 23,1 C 25,0 C 22,2 C 83 % 1017,6 hPa 0,0 l/m 2 min 0 min 410 W/m 4,5 km/h (1 Bft) 97,87 %
20.08.2018 13:56 23,1 C 25,0 C 22,2 C 83 % 1017,6 hPa 0,0 l/m 2 min 0 min 403 W/m 4,5 km/h (1 Bft) 95,74 %
20.08.2018 13:58 23,2 C 24,4 C 22,2 C 83 % 1017,6 hPa 0,0 l/m 2 min 0 min 387 W/m 6,8 km/h (2 Bft) 97,87 %
20.08.2018 14:00 23,2 C 25,0 C 22,2 C 82 % 1017,6 hPa 0,0 l/m 0 min 0 min 370 W/m 4,5 km/h (1 Bft) 97,87 %
20.08.2018 14:02 23,3 C 25,0 C 22,2 C 82 % 1017,6 hPa 0,0 l/m 2 min 0 min 387 W/m 4,5 km/h (1 Bft) 100,00 %
20.08.2018 14:04 23,3 C 25,0 C 22,2 C 82 % 1017,5 hPa 0,0 l/m 2 min 0 min 444 W/m 4,5 km/h (1 Bft) 97,83 %
20.08.2018 14:06 23,4 C 25,0 C 22,2 C 82 % 1017,6 hPa 0,0 l/m 0 min 0 min 376 W/m 4,5 km/h (1 Bft) 97,87 %
20.08.2018 14:08 23,4 C 25,0 C 22,2 C 82 % 1017,5 hPa 0,0 l/m 0 min 0 min 321 W/m 4,5 km/h (1 Bft) 95,74 %
20.08.2018 14:10 23,4 C 25,0 C 22,2 C 81 % 1017,5 hPa 0,0 l/m 0 min 0 min 298 W/m 2,3 km/h (1 Bft) 97,87 %
20.08.2018 14:12 23,5 C 24,4 C 22,2 C 81 % 1017,6 hPa 0,0 l/m 0 min 0 min 286 W/m 9,0 km/h (2 Bft) 97,87 %
20.08.2018 14:14 23,5 C 24,4 C 22,2 C 80 % 1017,6 hPa 0,0 l/m 0 min 0 min 254 W/m 9,0 km/h (2 Bft) 97,87 %
20.08.2018 14:16 23,6 C 24,4 C 22,2 C 79 % 1017,6 hPa 0,0 l/m 0 min 0 min 290 W/m 4,5 km/h (1 Bft) 100,00 %
20.08.2018 14:18 23,6 C 24,4 C 22,2 C 79 % 1017,6 hPa 0,0 l/m 0 min 0 min 341 W/m 6,8 km/h (2 Bft) 100,00 %
20.08.2018 14:20 23,6 C 24,4 C 22,2 C 79 % 1017,6 hPa 0,0 l/m 0 min 0 min 335 W/m 4,5 km/h (1 Bft) 97,87 %
20.08.2018 14:22 23,7 C 24,4 C 22,2 C 79 % 1017,6 hPa 0,0 l/m 0 min 0 min 282 W/m 4,5 km/h (1 Bft) 100,00 %
20.08.2018 14:24 23,7 C 24,4 C 22,2 C 79 % 1017,5 hPa 0,0 l/m 0 min 0 min 225 W/m 4,5 km/h (1 Bft) 100,00 %
20.08.2018 14:26 23,7 C 23,9 C 22,2 C 79 % 1017,4 hPa 0,0 l/m 0 min 0 min 177 W/m 6,8 km/h (2 Bft) 100,00 %
20.08.2018 14:28 23,7 C 23,9 C 22,2 C 78 % 1017,6 hPa 0,0 l/m 0 min 0 min 184 W/m 4,5 km/h (1 Bft) 97,87 %
20.08.2018 14:30 23,7 C 23,9 C 22,2 C 78 % 1017,6 hPa 0,0 l/m 0 min 0 min 245 W/m 4,5 km/h (1 Bft) 97,87 %
20.08.2018 14:32 23,7 C 23,9 C 22,2 C 79 % 1017,6 hPa 0,0 l/m 0 min 0 min 257 W/m 4,5 km/h (1 Bft) 100,00 %
20.08.2018 14:34 23,7 C 23,9 C 22,2 C 78 % 1017,5 hPa 0,0 l/m 0 min 0 min 208 W/m 6,8 km/h (2 Bft) 97,87 %
20.08.2018 14:36 23,7 C 23,3 C 21,7 C 78 % 1017,6 hPa 0,0 l/m 0 min 0 min 164 W/m 6,8 km/h (2 Bft) 100,00 %
20.08.2018 14:38 23,7 C 23,3 C 21,7 C 78 % 1017,6 hPa 0,0 l/m 0 min 0 min 139 W/m 6,8 km/h (2 Bft) 100,00 %
20.08.2018 14:40 23,7 C 23,3 C 21,7 C 78 % 1017,5 hPa 0,0 l/m 0 min 0 min 143 W/m 6,8 km/h (2 Bft) 100,00 %
20.08.2018 14:42 23,6 C 23,3 C 21,7 C 77 % 1017,5 hPa 0,0 l/m 0 min 0 min 132 W/m 4,5 km/h (1 Bft) 97,87 %
20.08.2018 14:44 23,6 C 22,8 C 21,7 C 77 % 1017,6 hPa 0,0 l/m 0 min 0 min 112 W/m 6,8 km/h (2 Bft) 97,87 %
20.08.2018 14:46 23,6 C 22,8 C 21,7 C 77 % 1017,7 hPa 0,0 l/m 0 min 0 min 108 W/m 11,3 km/h (2 Bft) 97,87 %
20.08.2018 14:48 23,5 C 22,8 C 21,7 C 77 % 1017,7 hPa 0,0 l/m 0 min 0 min 107 W/m 6,8 km/h (2 Bft) 97,87 %
20.08.2018 14:50 23,5 C 22,8 C 21,7 C 78 % 1017,7 hPa 0,0 l/m 0 min 0 min 105 W/m 9,0 km/h (2 Bft) 95,74 %
20.08.2018 14:52 23,4 C 22,8 C 21,7 C 78 % 1017,7 hPa 0,0 l/m 0 min 0 min 110 W/m 11,3 km/h (2 Bft) 97,83 %
20.08.2018 14:54 23,4 C 22,8 C 21,7 C 78 % 1017,7 hPa 0,0 l/m 0 min 0 min 104 W/m 4,5 km/h (1 Bft) 97,87 %
20.08.2018 14:56 23,3 C 22,2 C 21,1 C 78 % 1017,7 hPa 0,0 l/m 0 min 0 min 88 W/m 4,5 km/h (1 Bft) 97,87 %
20.08.2018 14:58 23,3 C 22,2 C 21,1 C 78 % 1017,8 hPa 0,0 l/m 0 min 0 min 69 W/m 6,8 km/h (2 Bft) 97,87 %
20.08.2018 15:00 23,2 C 22,2 C 21,1 C 79 % 1017,8 hPa 0,0 l/m 0 min 2 min 63 W/m 13,5 km/h (3 Bft) 97,87 %
20.08.2018 15:02 23,2 C 21,7 C 21,1 C 79 % 1017,8 hPa 0,0 l/m 0 min 2 min 66 W/m 6,8 km/h (2 Bft) 97,83 %
20.08.2018 15:04 23,2 C 21,1 C 20,6 C 80 % 1017,8 hPa 0,0 l/m 0 min 2 min 79 W/m 9,0 km/h (2 Bft) 97,87 %
20.08.2018 15:06 23,1 C 20,6 C 20,6 C 80 % 1017,8 hPa 0,0 l/m 0 min 2 min 93 W/m 13,5 km/h (3 Bft) 97,87 %
20.08.2018 15:08 23,1 C 20,6 C 20,0 C 81 % 1017,7 hPa 0,0 l/m 0 min 2 min 117 W/m 6,8 km/h (2 Bft) 95,74 %
20.08.2018 15:10 23,0 C 20,6 C 20,0 C 82 % 1017,7 hPa 0,0 l/m 0 min 0 min 144 W/m 4,5 km/h (1 Bft) 97,87 %
20.08.2018 15:12 22,9 C 20,6 C 20,0 C 82 % 1017,7 hPa 0,0 l/m 0 min 0 min 166 W/m 6,8 km/h (2 Bft) 97,87 %
20.08.2018 15:14 22,8 C 20,6 C 20,0 C 83 % 1017,7 hPa 0,0 l/m 0 min 0 min 185 W/m 2,3 km/h (1 Bft) 97,83 %
20.08.2018 15:16 22,8 C 21,1 C 20,6 C 83 % 1017,8 hPa 0,0 l/m 0 min 0 min 189 W/m 6,8 km/h (2 Bft) 97,87 %
20.08.2018 15:18 22,7 C 21,1 C 20,6 C 83 % 1017,8 hPa 0,0 l/m 0 min 0 min 179 W/m 4,5 km/h (1 Bft) 95,74 %
20.08.2018 15:20 22,7 C 21,7 C 20,6 C 83 % 1017,7 hPa 0,0 l/m 0 min 0 min 166 W/m 9,0 km/h (2 Bft) 95,74 %
20.08.2018 15:22 22,6 C 21,7 C 20,6 C 83 % 1017,7 hPa 0,0 l/m 0 min 0 min 150 W/m 6,8 km/h (2 Bft) 97,87 %
20.08.2018 15:24 22,6 C 21,7 C 20,6 C 84 % 1017,7 hPa 0,0 l/m 0 min 0 min 136 W/m 6,8 km/h (2 Bft) 97,87 %
20.08.2018 15:26 22,6 C 21,7 C 20,6 C 84 % 1017,8 hPa 0,0 l/m 0 min 0 min 119 W/m 4,5 km/h (1 Bft) 97,83 %
20.08.2018 15:28 22,5 C 21,7 C 20,6 C 84 % 1017,7 hPa 0,0 l/m 0 min 0 min 102 W/m 4,5 km/h (1 Bft) 100,00 %
20.08.2018 15:30 22,4 C 21,7 C 20,6 C 84 % 1017,7 hPa 0,0 l/m 0 min 2 min 88 W/m 6,8 km/h (2 Bft) 97,87 %
20.08.2018 15:32 22,4 C 21,1 C 20,6 C 84 % 1017,7 hPa 0,0 l/m 0 min 0 min 79 W/m 4,5 km/h (1 Bft) 97,87 %
20.08.2018 15:34 22,3 C 21,1 C 20,6 C 84 % 1017,7 hPa 0,0 l/m 0 min 0 min 74 W/m 9,0 km/h (2 Bft) 100,00 %
20.08.2018 15:36 22,2 C 21,1 C 20,6 C 83 % 1017,7 hPa 0,0 l/m 0 min 2 min 74 W/m 6,8 km/h (2 Bft) 100,00 %
20.08.2018 15:38 22,2 C 21,1 C 20,0 C 83 % 1017,7 hPa 0,0 l/m 0 min 0 min 72 W/m 9,0 km/h (2 Bft) 100,00 %
20.08.2018 15:40 22,2 C 21,1 C 20,6 C 84 % 1017,7 hPa 0,0 l/m 0 min 0 min 75 W/m 4,5 km/h (1 Bft) 97,87 %
20.08.2018 15:42 22,1 C 21,1 C 20,6 C 84 % 1017,6 hPa 0,0 l/m 0 min 0 min 80 W/m 4,5 km/h (1 Bft) 100,00 %
20.08.2018 15:44 22,1 C 21,1 C 20,6 C 84 % 1017,6 hPa 0,0 l/m 0 min 0 min 78 W/m 6,8 km/h (2 Bft) 100,00 %
20.08.2018 15:46 22,1 C 21,1 C 20,6 C 84 % 1017,6 hPa 0,0 l/m 0 min 0 min 72 W/m 4,5 km/h (1 Bft) 100,00 %
20.08.2018 15:48 22,0 C 21,1 C 20,6 C 84 % 1017,6 hPa 0,0 l/m 0 min 0 min 63 W/m 4,5 km/h (1 Bft) 100,00 %
20.08.2018 15:50 22,0 C 20,6 C 20,6 C 84 % 1017,7 hPa 0,0 l/m 0 min 0 min 57 W/m 4,5 km/h (1 Bft) 97,83 %
20.08.2018 15:52 21,9 C 20,6 C 20,6 C 84 % 1017,7 hPa 0,0 l/m 0 min 0 min 58 W/m 4,5 km/h (1 Bft) 97,87 %
20.08.2018 15:54 21,9 C 20,6 C 20,0 C 84 % 1017,6 hPa 0,0 l/m 0 min 0 min 63 W/m 9,0 km/h (2 Bft) 95,74 %
20.08.2018 15:56 21,8 C 21,1 C 20,0 C 84 % 1017,6 hPa 0,0 l/m 0 min 0 min 74 W/m 9,0 km/h (2 Bft) 97,87 %
20.08.2018 15:58 21,8 C 21,1 C 20,0 C 84 % 1017,7 hPa 0,0 l/m 0 min 0 min 87 W/m 2,3 km/h (1 Bft) 100,00 %
20.08.2018 16:00 21,8 C 21,1 C 20,6 C 84 % 1017,7 hPa 0,0 l/m 0 min 0 min 89 W/m 4,5 km/h (1 Bft) 95,65 %
20.08.2018 16:02 21,8 C 21,1 C 20,6 C 84 % 1017,7 hPa 0,0 l/m 0 min 0 min 85 W/m 6,8 km/h (2 Bft) 97,87 %
20.08.2018 16:04 21,7 C 21,1 C 20,6 C 84 % 1017,7 hPa 0,0 l/m 0 min 0 min 81 W/m 4,5 km/h (1 Bft) 93,62 %
20.08.2018 16:06 21,7 C 21,1 C 20,6 C 84 % 1017,7 hPa 0,0 l/m 0 min 0 min 78 W/m 6,8 km/h (2 Bft) 100,00 %
20.08.2018 16:08 21,7 C 21,1 C 20,6 C 84 % 1017,6 hPa 0,0 l/m 0 min 0 min 77 W/m 4,5 km/h (1 Bft) 100,00 %
20.08.2018 16:10 21,7 C 21,1 C 20,6 C 84 % 1017,7 hPa 0,0 l/m 0 min 0 min 77 W/m 4,5 km/h (1 Bft) 97,87 %
20.08.2018 16:12 21,7 C 21,1 C 20,6 C 84 % 1017,7 hPa 0,0 l/m 0 min 0 min 83 W/m 6,8 km/h (2 Bft) 97,83 %
20.08.2018 16:14 21,6 C 21,1 C 20,6 C 84 % 1017,8 hPa 0,0 l/m 0 min 0 min 94 W/m 4,5 km/h (1 Bft) 97,87 %
20.08.2018 16:16 21,6 C 21,1 C 20,6 C 84 % 1017,8 hPa 0,0 l/m 0 min 0 min 109 W/m 4,5 km/h (1 Bft) 97,87 %
20.08.2018 16:18 21,6 C 21,1 C 20,6 C 84 % 1017,7 hPa 0,0 l/m 0 min 0 min 118 W/m 2,3 km/h (1 Bft) 97,87 %
20.08.2018 16:20 21,6 C 21,7 C 20,6 C 84 % 1017,8 hPa 0,0 l/m 0 min 0 min 124 W/m 2,3 km/h (1 Bft) 97,87 %
20.08.2018 16:22 21,6 C 21,7 C 20,6 C 85 % 1017,7 hPa 0,0 l/m 0 min 0 min 131 W/m 2,3 km/h (1 Bft) 97,87 %
20.08.2018 16:24 21,6 C 21,7 C 20,6 C 85 % 1017,7 hPa 0,0 l/m 0 min 0 min 144 W/m 4,5 km/h (1 Bft) 97,83 %
20.08.2018 16:26 21,6 C 21,7 C 20,6 C 85 % 1017,7 hPa 0,0 l/m 0 min 0 min 161 W/m 4,5 km/h (1 Bft) 97,87 %
20.08.2018 16:28 21,6 C 21,7 C 20,6 C 85 % 1017,7 hPa 0,0 l/m 0 min 0 min 174 W/m 6,8 km/h (2 Bft) 97,87 %
20.08.2018 16:30 21,6 C 22,2 C 20,6 C 84 % 1017,7 hPa 0,0 l/m 0 min 0 min 177 W/m 4,5 km/h (1 Bft) 97,87 %
20.08.2018 16:32 21,6 C 22,2 C 21,1 C 84 % 1017,7 hPa 0,0 l/m 0 min 0 min 174 W/m 2,3 km/h (1 Bft) 95,74 %
20.08.2018 16:34 21,6 C 22,2 C 21,1 C 84 % 1017,7 hPa 0,0 l/m 0 min 0 min 174 W/m 4,5 km/h (1 Bft) 97,87 %
20.08.2018 16:36 21,6 C 22,2 C 21,1 C 83 % 1017,7 hPa 0,0 l/m 0 min 0 min 172 W/m 4,5 km/h (1 Bft) 95,65 %
20.08.2018 16:38 21,6 C 22,2 C 21,1 C 83 % 1017,7 hPa 0,0 l/m 0 min 0 min 171 W/m 9,0 km/h (2 Bft) 95,74 %
20.08.2018 16:40 21,6 C 22,2 C 21,1 C 83 % 1017,6 hPa 0,0 l/m 0 min 0 min 172 W/m 2,3 km/h (1 Bft) 95,74 %
20.08.2018 16:42 21,7 C 22,2 C 21,1 C 82 % 1017,7 hPa 0,0 l/m 0 min 0 min 172 W/m 4,5 km/h (1 Bft) 95,74 %
20.08.2018 16:44 21,7 C 22,2 C 21,1 C 82 % 1017,7 hPa 0,0 l/m 0 min 0 min 168 W/m 6,8 km/h (2 Bft) 95,74 %
20.08.2018 16:46 21,7 C 22,2 C 21,1 C 82 % 1017,7 hPa 0,0 l/m 0 min 0 min 166 W/m 2,3 km/h (1 Bft) 95,74 %
20.08.2018 16:48 21,7 C 22,2 C 21,1 C 81 % 1017,7 hPa 0,0 l/m 0 min 0 min 168 W/m 4,5 km/h (1 Bft) 95,65 %
20.08.2018 16:50 21,7 C 22,8 C 21,1 C 81 % 1017,6 hPa 0,0 l/m 0 min 0 min 173 W/m 6,8 km/h (2 Bft) 95,74 %
20.08.2018 16:52 21,8 C 22,8 C 21,1 C 81 % 1017,7 hPa 0,0 l/m 0 min 0 min 175 W/m 4,5 km/h (1 Bft) 95,74 %
20.08.2018 16:54 21,8 C 22,8 C 21,1 C 82 % 1017,6 hPa 0,0 l/m 0 min 0 min 175 W/m 2,3 km/h (1 Bft) 95,74 %
20.08.2018 16:56 21,9 C 22,8 C 21,1 C 82 % 1017,6 hPa 0,0 l/m 0 min 0 min 168 W/m 4,5 km/h (1 Bft) 95,74 %
20.08.2018 16:58 21,9 C 22,8 C 21,1 C 82 % 1017,5 hPa 0,0 l/m 0 min 0 min 151 W/m 6,8 km/h (2 Bft) 95,74 %
20.08.2018 17:00 21,9 C 22,8 C 21,1 C 82 % 1017,5 hPa 0,0 l/m 0 min 0 min 126 W/m 6,8 km/h (2 Bft) 95,65 %
20.08.2018 17:02 21,9 C 22,8 C 21,1 C 81 % 1017,6 hPa 0,0 l/m 0 min 0 min 101 W/m 9,0 km/h (2 Bft) 95,74 %
20.08.2018 17:04 22,0 C 22,2 C 21,1 C 81 % 1017,6 hPa 0,0 l/m 0 min 0 min 81 W/m 4,5 km/h (1 Bft) 97,87 %
20.08.2018 17:06 22,0 C 22,2 C 21,1 C 81 % 1017,7 hPa 0,0 l/m 0 min 0 min 70 W/m 4,5 km/h (1 Bft) 97,87 %
20.08.2018 17:08 22,1 C 22,2 C 21,1 C 81 % 1017,6 hPa 0,0 l/m 0 min 0 min 72 W/m 4,5 km/h (1 Bft) 95,74 %
20.08.2018 17:10 22,1 C 22,2 C 21,1 C 81 % 1017,7 hPa 0,0 l/m 0 min 0 min 80 W/m 4,5 km/h (1 Bft) 97,83 %
20.08.2018 17:12 22,1 C 22,2 C 21,1 C 81 % 1017,7 hPa 0,0 l/m 0 min 0 min 91 W/m 4,5 km/h (1 Bft) 95,74 %
20.08.2018 17:14 22,1 C 22,2 C 21,1 C 81 % 1017,5 hPa 0,0 l/m 0 min 0 min 101 W/m 2,3 km/h (1 Bft) 97,87 %
20.08.2018 17:16 22,1 C 22,2 C 21,1 C 81 % 1017,5 hPa 0,0 l/m 0 min 0 min 104 W/m 2,3 km/h (1 Bft) 97,87 %
20.08.2018 17:18 22,1 C 22,2 C 21,1 C 81 % 1017,6 hPa 0,0 l/m 0 min 0 min 103 W/m 4,5 km/h (1 Bft) 97,87 %
20.08.2018 17:20 22,1 C 22,2 C 21,1 C 81 % 1017,5 hPa 0,0 l/m 0 min 0 min 99 W/m 4,5 km/h (1 Bft) 95,74 %
20.08.2018 17:22 22,2 C 22,2 C 21,1 C 81 % 1017,5 hPa 0,0 l/m 0 min 0 min 97 W/m 6,8 km/h (2 Bft) 93,48 %
20.08.2018 17:24 22,2 C 22,2 C 21,1 C 81 % 1017,6 hPa 0,0 l/m 0 min 0 min 97 W/m 9,0 km/h (2 Bft) 95,74 %
20.08.2018 17:26 22,2 C 22,2 C 21,1 C 81 % 1017,5 hPa 0,0 l/m 0 min 0 min 95 W/m 4,5 km/h (1 Bft) 91,49 %
20.08.2018 17:28 22,2 C 22,2 C 21,1 C 81 % 1017,6 hPa 0,0 l/m 0 min 0 min 91 W/m 6,8 km/h (2 Bft) 95,74 %
20.08.2018 17:30 22,2 C 22,2 C 21,1 C 81 % 1017,5 hPa 0,0 l/m 0 min 0 min 87 W/m 6,8 km/h (2 Bft) 95,74 %
20.08.2018 17:32 22,2 C 21,7 C 21,1 C 81 % 1017,5 hPa 0,0 l/m 0 min 0 min 85 W/m 6,8 km/h (2 Bft) 95,74 %
20.08.2018 17:34 22,2 C 21,7 C 21,1 C 82 % 1017,4 hPa 0,0 l/m 0 min 0 min 84 W/m 6,8 km/h (2 Bft) 95,65 %
20.08.2018 17:36 22,2 C 21,7 C 21,1 C 81 % 1017,4 hPa 0,0 l/m 0 min 0 min 84 W/m 4,5 km/h (1 Bft) 97,87 %
20.08.2018 17:38 22,2 C 21,7 C 21,1 C 81 % 1017,5 hPa 0,0 l/m 0 min 0 min 84 W/m 4,5 km/h (1 Bft) 97,87 %
20.08.2018 17:40 22,2 C 21,7 C 20,6 C 81 % 1017,5 hPa 0,0 l/m 0 min 0 min 83 W/m 6,8 km/h (2 Bft) 95,74 %
20.08.2018 17:42 22,2 C 21,7 C 20,6 C 80 % 1017,5 hPa 0,0 l/m 0 min 0 min 81 W/m 6,8 km/h (2 Bft) 97,87 %
20.08.2018 17:44 22,2 C 21,7 C 21,1 C 80 % 1017,5 hPa 0,0 l/m 0 min 0 min 84 W/m 4,5 km/h (1 Bft) 91,49 %
20.08.2018 17:46 22,1 C 21,7 C 21,1 C 80 % 1017,5 hPa 0,0 l/m 0 min 0 min 88 W/m 2,3 km/h (1 Bft) 97,83 %
20.08.2018 17:48 22,1 C 21,7 C 21,1 C 79 % 1017,4 hPa 0,0 l/m 0 min 0 min 92 W/m 4,5 km/h (1 Bft) 97,87 %
20.08.2018 17:50 22,1 C 21,7 C 21,1 C 78 % 1017,4 hPa 0,0 l/m 0 min 0 min 97 W/m 4,5 km/h (1 Bft) 95,74 %
20.08.2018 17:52 22,1 C 22,2 C 21,1 C 78 % 1017,4 hPa 0,0 l/m 0 min 0 min 102 W/m 2,3 km/h (1 Bft) 97,87 %
20.08.2018 17:54 22,1 C 21,7 C 21,1 C 78 % 1017,5 hPa 0,0 l/m 0 min 0 min 103 W/m 6,8 km/h (2 Bft) 95,74 %
20.08.2018 17:56 22,1 C 22,2 C 21,1 C 77 % 1017,5 hPa 0,0 l/m 0 min 0 min 106 W/m 4,5 km/h (1 Bft) 97,87 %
20.08.2018 17:58 22,1 C 22,2 C 21,1 C 76 % 1017,5 hPa 0,0 l/m 0 min 0 min 110 W/m 6,8 km/h (2 Bft) 97,83 %
20.08.2018 18:00 22,1 C 22,2 C 21,1 C 76 % 1017,6 hPa 0,0 l/m 0 min 0 min 109 W/m 6,8 km/h (2 Bft) 97,87 %
20.08.2018 18:02 22,1 C 22,2 C 21,1 C 76 % 1017,6 hPa 0,0 l/m 0 min 0 min 106 W/m 4,5 km/h (1 Bft) 95,74 %
20.08.2018 18:04 22,0 C 22,2 C 21,1 C 76 % 1017,5 hPa 0,0 l/m 0 min 0 min 103 W/m 4,5 km/h (1 Bft) 100,00 %
20.08.2018 18:06 22,0 C 22,2 C 21,1 C 75 % 1017,4 hPa 0,0 l/m 0 min 0 min 98 W/m 4,5 km/h (1 Bft) 100,00 %
20.08.2018 18:08 22,1 C 22,2 C 21,1 C 75 % 1017,6 hPa 0,0 l/m 0 min 0 min 90 W/m 2,3 km/h (1 Bft) 100,00 %
20.08.2018 18:10 22,1 C 22,2 C 21,1 C 76 % 1017,6 hPa 0,0 l/m 0 min 0 min 80 W/m 4,5 km/h (1 Bft) 100,00 %
20.08.2018 18:12 22,1 C 21,7 C 21,1 C 76 % 1017,6 hPa 0,0 l/m 0 min 0 min 70 W/m 6,8 km/h (2 Bft) 97,87 %
20.08.2018 18:14 22,1 C 21,7 C 21,1 C 76 % 1017,6 hPa 0,0 l/m 0 min 0 min 66 W/m 6,8 km/h (2 Bft) 100,00 %
20.08.2018 18:16 22,1 C 21,7 C 21,1 C 76 % 1017,6 hPa 0,0 l/m 0 min 0 min 61 W/m 4,5 km/h (1 Bft) 100,00 %
20.08.2018 18:18 22,1 C 21,7 C 20,6 C 77 % 1017,5 hPa 0,0 l/m 0 min 0 min 55 W/m 2,3 km/h (1 Bft) 100,00 %
20.08.2018 18:20 22,1 C 21,7 C 20,6 C 77 % 1017,5 hPa 0,0 l/m 0 min 0 min 53 W/m 6,8 km/h (2 Bft) 100,00 %
20.08.2018 18:22 22,1 C 21,7 C 20,6 C 77 % 1017,5 hPa 0,0 l/m 0 min 0 min 55 W/m 4,5 km/h (1 Bft) 100,00 %
20.08.2018 18:24 22,1 C 21,7 C 20,6 C 77 % 1017,5 hPa 0,0 l/m 0 min 0 min 58 W/m 2,3 km/h (1 Bft) 100,00 %
20.08.2018 18:26 22,1 C 21,7 C 20,6 C 78 % 1017,6 hPa 0,0 l/m 0 min 0 min 56 W/m 4,5 km/h (1 Bft) 100,00 %
20.08.2018 18:28 22,1 C 21,7 C 20,6 C 78 % 1017,6 hPa 0,0 l/m 0 min 0 min 54 W/m 6,8 km/h (2 Bft) 100,00 %
20.08.2018 18:30 22,1 C 21,7 C 20,6 C 78 % 1017,6 hPa 0,0 l/m 0 min 0 min 50 W/m 4,5 km/h (1 Bft) 100,00 %
20.08.2018 18:32 22,1 C 21,7 C 20,6 C 78 % 1017,6 hPa 0,0 l/m 0 min 0 min 47 W/m 6,8 km/h (2 Bft) 100,00 %
20.08.2018 18:34 22,1 C 21,7 C 20,6 C 78 % 1017,6 hPa 0,0 l/m 0 min 0 min 47 W/m 6,8 km/h (2 Bft) 100,00 %
20.08.2018 18:36 22,1 C 21,7 C 20,6 C 79 % 1017,5 hPa 0,0 l/m 0 min 0 min 51 W/m 6,8 km/h (2 Bft) 100,00 %
20.08.2018 18:38 22,1 C 21,7 C 20,6 C 79 % 1017,5 hPa 0,0 l/m 0 min 0 min 58 W/m 4,5 km/h (1 Bft) 100,00 %
20.08.2018 18:40 22,1 C 21,7 C 20,6 C 79 % 1017,4 hPa 0,0 l/m 0 min 0 min 64 W/m 6,8 km/h (2 Bft) 100,00 %
20.08.2018 18:42 22,1 C 21,7 C 20,6 C 79 % 1017,4 hPa 0,0 l/m 0 min 0 min 70 W/m 4,5 km/h (1 Bft) 100,00 %
20.08.2018 18:44 22,1 C 21,7 C 20,6 C 80 % 1017,5 hPa 0,0 l/m 0 min 0 min 72 W/m 2,3 km/h (1 Bft) 97,87 %
20.08.2018 18:46 22,1 C 21,7 C 20,6 C 80 % 1017,4 hPa 0,0 l/m 0 min 0 min 72 W/m 2,3 km/h (1 Bft) 100,00 %
20.08.2018 18:48 22,1 C 21,7 C 20,6 C 80 % 1017,4 hPa 0,0 l/m 0 min 0 min 73 W/m 2,3 km/h (1 Bft) 97,83 %
20.08.2018 18:50 22,1 C 21,7 C 20,6 C 80 % 1017,4 hPa 0,0 l/m 0 min 0 min 72 W/m 0,0 km/h (0 Bft) 100,00 %
20.08.2018 18:52 22,1 C 21,7 C 20,6 C 80 % 1017,4 hPa 0,0 l/m 0 min 0 min 68 W/m 0,0 km/h (0 Bft) 100,00 %
20.08.2018 18:54 22,1 C 21,7 C 20,6 C 80 % 1017,4 hPa 0,0 l/m 0 min 0 min 62 W/m 0,0 km/h (0 Bft) 100,00 %
20.08.2018 18:56 22,1 C 21,7 C 20,6 C 80 % 1017,3 hPa 0,0 l/m 0 min 0 min 59 W/m 0,0 km/h (0 Bft) 100,00 %
20.08.2018 18:58 22,1 C 21,7 C 20,6 C 80 % 1017,3 hPa 0,0 l/m 0 min 0 min 58 W/m 0,0 km/h (0 Bft) 97,87 %
20.08.2018 19:00 22,1 C 21,7 C 20,6 C 80 % 1017,4 hPa 0,0 l/m 0 min 0 min 58 W/m 0,0 km/h (0 Bft) 100,00 %
20.08.2018 19:02 22,1 C 21,7 C 20,6 C 80 % 1017,4 hPa 0,0 l/m 0 min 0 min 63 W/m 0,0 km/h (0 Bft) 97,87 %
20.08.2018 19:04 22,1 C 21,7 C 20,6 C 80 % 1017,3 hPa 0,0 l/m 0 min 0 min 68 W/m 0,0 km/h (0 Bft) 100,00 %
20.08.2018 19:06 22,1 C 21,7 C 20,6 C 80 % 1017,3 hPa 0,0 l/m 0 min 0 min 70 W/m 0,0 km/h (0 Bft) 97,87 %
20.08.2018 19:08 22,1 C 21,7 C 20,6 C 80 % 1017,4 hPa 0,0 l/m 0 min 0 min 69 W/m 0,0 km/h (0 Bft) 97,87 %
20.08.2018 19:10 22,1 C 21,7 C 20,6 C 80 % 1017,4 hPa 0,0 l/m 0 min 0 min 64 W/m 0,0 km/h (0 Bft) 100,00 %
20.08.2018 19:12 22,1 C 21,7 C 20,6 C 79 % 1017,3 hPa 0,0 l/m 0 min 0 min 59 W/m 0,0 km/h (0 Bft) 100,00 %
20.08.2018 19:14 22,1 C 21,7 C 20,6 C 79 % 1017,3 hPa 0,0 l/m 0 min 0 min 54 W/m 0,0 km/h (0 Bft) 100,00 %
20.08.2018 19:16 22,0 C 21,7 C 20,6 C 79 % 1017,4 hPa 0,0 l/m 0 min 0 min 52 W/m 0,0 km/h (0 Bft) 95,74 %
20.08.2018 19:18 22,1 C 21,7 C 20,6 C 79 % 1017,4 hPa 0,0 l/m 0 min 0 min 48 W/m 0,0 km/h (0 Bft) 97,87 %
20.08.2018 19:20 22,0 C 21,7 C 20,6 C 79 % 1017,5 hPa 0,0 l/m 0 min 0 min 44 W/m 0,0 km/h (0 Bft) 97,87 %
20.08.2018 19:22 22,0 C 21,7 C 20,6 C 79 % 1017,4 hPa 0,0 l/m 0 min 0 min 39 W/m 0,0 km/h (0 Bft) 95,74 %
20.08.2018 19:24 22,0 C 21,7 C 20,6 C 79 % 1017,3 hPa 0,0 l/m 0 min 0 min 36 W/m 0,0 km/h (0 Bft) 97,83 %
20.08.2018 19:26 22,1 C 21,1 C 20,6 C 79 % 1017,4 hPa 0,0 l/m 0 min 0 min 33 W/m 0,0 km/h (0 Bft) 97,87 %
20.08.2018 19:28 22,0 C 21,1 C 20,6 C 79 % 1017,4 hPa 0,0 l/m 0 min 0 min 32 W/m 0,0 km/h (0 Bft) 97,87 %
20.08.2018 19:30 22,0 C 21,1 C 20,6 C 79 % 1017,5 hPa 0,0 l/m 0 min 0 min 30 W/m 0,0 km/h (0 Bft) 97,87 %
20.08.2018 19:32 22,0 C 21,1 C 20,6 C 79 % 1017,5 hPa 0,0 l/m 0 min 0 min 28 W/m 0,0 km/h (0 Bft) 97,87 %
20.08.2018 19:34 22,0 C 21,1 C 20,6 C 79 % 1017,4 hPa 0,0 l/m 0 min 0 min 28 W/m 0,0 km/h (0 Bft) 97,87 %
20.08.2018 19:36 22,0 C 21,1 C 20,6 C 79 % 1017,4 hPa 0,0 l/m 0 min 0 min 28 W/m 0,0 km/h (0 Bft) 97,83 %
20.08.2018 19:38 22,0 C 21,1 C 20,6 C 79 % 1017,4 hPa 0,0 l/m 0 min 0 min 26 W/m 0,0 km/h (0 Bft) 97,87 %
20.08.2018 19:40 22,0 C 21,1 C 20,6 C 79 % 1017,4 hPa 0,0 l/m 0 min 0 min 25 W/m 0,0 km/h (0 Bft) 97,87 %
20.08.2018 19:42 22,0 C 21,1 C 20,6 C 79 % 1017,4 hPa 0,0 l/m 0 min 0 min 24 W/m 0,0 km/h (0 Bft) 97,87 %
20.08.2018 19:44 21,9 C 21,1 C 20,6 C 79 % 1017,5 hPa 0,0 l/m 0 min 0 min 23 W/m 0,0 km/h (0 Bft) 97,87 %
20.08.2018 19:46 21,9 C 21,1 C 20,6 C 79 % 1017,5 hPa 0,0 l/m 0 min 0 min 22 W/m 0,0 km/h (0 Bft) 95,74 %
20.08.2018 19:48 21,9 C 21,1 C 20,6 C 79 % 1017,5 hPa 0,0 l/m 0 min 0 min 19 W/m 0,0 km/h (0 Bft) 91,30 %
20.08.2018 19:50 21,9 C 21,1 C 20,6 C 79 % 1017,4 hPa 0,0 l/m 0 min 0 min 18 W/m 0,0 km/h (0 Bft) 97,96 %
20.08.2018 19:52 21,9 C 21,1 C 20,6 C 79 % 1017,4 hPa 0,0 l/m 0 min 0 min 19 W/m 0,0 km/h (0 Bft) 97,87 %
20.08.2018 19:54 21,9 C 21,1 C 20,6 C 79 % 1017,4 hPa 0,0 l/m 0 min 0 min 18 W/m 0,0 km/h (0 Bft) 97,87 %
20.08.2018 19:56 21,9 C 21,1 C 20,6 C 79 % 1017,4 hPa 0,0 l/m 0 min 0 min 16 W/m 0,0 km/h (0 Bft) 93,62 %
20.08.2018 19:58 21,9 C 21,1 C 20,0 C 79 % 1017,5 hPa 0,0 l/m 0 min 0 min 15 W/m 0,0 km/h (0 Bft) 93,48 %
20.08.2018 20:00 21,9 C 21,1 C 20,0 C 80 % 1017,5 hPa 0,0 l/m 0 min 0 min 14 W/m 0,0 km/h (0 Bft) 91,49 %
20.08.2018 20:02 21,9 C 20,6 C 20,0 C 80 % 1017,4 hPa 0,0 l/m 0 min 0 min 14 W/m 0,0 km/h (0 Bft) 93,62 %
20.08.2018 20:04 21,8 C 20,6 C 20,0 C 80 % 1017,5 hPa 0,0 l/m 0 min 0 min 14 W/m 0,0 km/h (0 Bft) 93,62 %
20.08.2018 20:06 21,8 C 20,6 C 20,0 C 80 % 1017,5 hPa 0,0 l/m 0 min 0 min 12 W/m 0,0 km/h (0 Bft) 93,62 %
20.08.2018 20:08 21,8 C 20,6 C 20,0 C 80 % 1017,5 hPa 0,0 l/m 0 min 0 min 12 W/m 0,0 km/h (0 Bft) 93,62 %
20.08.2018 20:10 21,8 C 20,6 C 20,0 C 80 % 1017,5 hPa 0,0 l/m 0 min 0 min 12 W/m 0,0 km/h (0 Bft) 93,48 %
20.08.2018 20:12 21,8 C 20,6 C 20,0 C 80 % 1017,5 hPa 0,0 l/m 0 min 0 min 12 W/m 0,0 km/h (0 Bft) 95,74 %
20.08.2018 20:14 21,8 C 20,6 C 20,0 C 80 % 1017,5 hPa 0,0 l/m 0 min 0 min 12 W/m 0,0 km/h (0 Bft) 95,74 %
20.08.2018 20:16 21,8 C 20,6 C 20,0 C 80 % 1017,5 hPa 0,0 l/m 0 min 0 min 11 W/m 0,0 km/h (0 Bft) 95,74 %
20.08.2018 20:18 21,8 C 20,6 C 20,0 C 80 % 1017,5 hPa 0,0 l/m 0 min 0 min 9 W/m 0,0 km/h (0 Bft) 95,74 %
20.08.2018 20:20 21,8 C 20,6 C 20,0 C 80 % 1017,6 hPa 0,0 l/m 0 min 0 min 10 W/m 0,0 km/h (0 Bft) 93,62 %
20.08.2018 20:22 21,7 C 20,6 C 20,0 C 80 % 1017,5 hPa 0,0 l/m 0 min 0 min 9 W/m 0,0 km/h (0 Bft) 95,65 %
20.08.2018 20:24 21,7 C 20,6 C 20,0 C 80 % 1017,7 hPa 0,0 l/m 0 min 0 min 9 W/m 0,0 km/h (0 Bft) 95,74 %
20.08.2018 20:26 21,7 C 20,6 C 20,0 C 80 % 1017,7 hPa 0,0 l/m 0 min 0 min 8 W/m 0,0 km/h (0 Bft) 93,62 %
20.08.2018 20:28 21,7 C 20,6 C 20,0 C 80 % 1017,7 hPa 0,0 l/m 0 min 0 min 9 W/m 0,0 km/h (0 Bft) 95,74 %
20.08.2018 20:30 21,7 C 20,6 C 20,0 C 80 % 1017,8 hPa 0,0 l/m 0 min 0 min 8 W/m 0,0 km/h (0 Bft) 95,74 %
20.08.2018 20:32 21,6 C 20,6 C 20,0 C 80 % 1017,7 hPa 0,0 l/m 0 min 0 min 7 W/m 0,0 km/h (0 Bft) 93,62 %
20.08.2018 20:34 21,6 C 20,6 C 20,0 C 80 % 1017,7 hPa 0,0 l/m 0 min 0 min 7 W/m 0,0 km/h (0 Bft) 93,48 %
20.08.2018 20:36 21,6 C 20,6 C 20,0 C 80 % 1017,7 hPa 0,0 l/m 0 min 0 min 5 W/m 0,0 km/h (0 Bft) 95,74 %
20.08.2018 20:38 21,6 C 20,6 C 20,0 C 80 % 1017,7 hPa 0,0 l/m 0 min 0 min 5 W/m 0,0 km/h (0 Bft) 93,62 %
20.08.2018 20:40 21,6 C 20,6 C 20,0 C 80 % 1017,7 hPa 0,0 l/m 0 min 0 min 2 W/m 0,0 km/h (0 Bft) 97,87 %
20.08.2018 20:42 21,6 C 20,6 C 20,0 C 80 % 1017,8 hPa 0,0 l/m 0 min 0 min 0 W/m 0,0 km/h (0 Bft) 97,87 %
20.08.2018 20:44 21,6 C 20,6 C 20,0 C 81 % 1017,8 hPa 0,0 l/m 0 min 0 min 0 W/m 0,0 km/h (0 Bft) 95,65 %
20.08.2018 20:46 21,5 C 20,6 C 20,0 C 81 % 1017,7 hPa 0,0 l/m 0 min 0 min 0 W/m 0,0 km/h (0 Bft) 93,62 %
20.08.2018 20:48 21,5 C 20,6 C 20,0 C 81 % 1017,8 hPa 0,0 l/m 0 min 0 min 0 W/m 0,0 km/h (0 Bft) 97,87 %
20.08.2018 20:50 21,5 C 20,6 C 20,0 C 81 % 1017,8 hPa 0,0 l/m 0 min 0 min 0 W/m 0,0 km/h (0 Bft) 97,87 %
20.08.2018 20:52 21,5 C 20,6 C 20,0 C 81 % 1017,7 hPa 0,0 l/m 0 min 0 min 0 W/m 0,0 km/h (0 Bft) 97,87 %
20.08.2018 20:54 21,4 C 20,6 C 20,0 C 81 % 1017,8 hPa 0,0 l/m 0 min 0 min 0 W/m 0,0 km/h (0 Bft) 100,00 %
20.08.2018 20:56 21,4 C 20,0 C 20,0 C 81 % 1017,9 hPa 0,0 l/m 0 min 0 min 0 W/m 0,0 km/h (0 Bft) 100,00 %
20.08.2018 20:58 21,4 C 20,0 C 20,0 C 81 % 1017,9 hPa 0,0 l/m 0 min 0 min 0 W/m 0,0 km/h (0 Bft) 97,87 %
20.08.2018 21:00 21,4 C 20,0 C 20,0 C 81 % 1017,9 hPa 0,0 l/m 0 min 0 min 0 W/m 0,0 km/h (0 Bft) 100,00 %
20.08.2018 21:02 21,4 C 20,0 C 20,0 C 81 % 1017,9 hPa 0,0 l/m 0 min 0 min 0 W/m 0,0 km/h (0 Bft) 100,00 %
20.08.2018 21:04 21,4 C 20,0 C 20,0 C 81 % 1017,9 hPa 0,0 l/m 0 min 0 min 0 W/m 0,0 km/h (0 Bft) 100,00 %
20.08.2018 21:06 21,4 C 20,0 C 20,0 C 81 % 1017,9 hPa 0,0 l/m 0 min 0 min 0 W/m 0,0 km/h (0 Bft) 100,00 %
20.08.2018 21:08 21,3 C 20,0 C 20,0 C 81 % 1017,9 hPa 0,0 l/m 0 min 0 min 0 W/m 0,0 km/h (0 Bft) 97,83 %
20.08.2018 21:10 21,3 C 20,0 C 20,0 C 81 % 1017,9 hPa 0,0 l/m 0 min 0 min 0 W/m 0,0 km/h (0 Bft) 100,00 %
20.08.2018 21:12 21,3 C 20,0 C 19,4 C 81 % 1018,0 hPa 0,0 l/m 0 min 0 min 0 W/m 0,0 km/h (0 Bft) 100,00 %
20.08.2018 21:14 21,3 C 20,0 C 20,0 C 82 % 1018,0 hPa 0,0 l/m 0 min 0 min 0 W/m 0,0 km/h (0 Bft) 100,00 %
20.08.2018 21:16 21,3 C 20,0 C 19,4 C 82 % 1018,0 hPa 0,0 l/m 0 min 0 min 0 W/m 0,0 km/h (0 Bft) 100,00 %
20.08.2018 21:18 21,3 C 20,0 C 19,4 C 81 % 1018,0 hPa 0,0 l/m 0 min 0 min 0 W/m 0,0 km/h (0 Bft) 97,87 %
20.08.2018 21:20 21,2 C 20,0 C 19,4 C 81 % 1018,0 hPa 0,0 l/m 0 min 0 min 0 W/m 0,0 km/h (0 Bft) 100,00 %
20.08.2018 21:22 21,2 C 20,0 C 19,4 C 81 % 1018,0 hPa 0,0 l/m 0 min 0 min 0 W/m 0,0 km/h (0 Bft) 100,00 %
20.08.2018 21:24 21,2 C 20,0 C 19,4 C 81 % 1018,0 hPa 0,0 l/m 0 min 0 min 0 W/m 0,0 km/h (0 Bft) 100,00 %
20.08.2018 21:26 21,2 C 20,0 C 19,4 C 81 % 1018,1 hPa 0,0 l/m 0 min 0 min 0 W/m 0,0 km/h (0 Bft) 100,00 %
20.08.2018 21:28 21,2 C 20,0 C 19,4 C 81 % 1018,0 hPa 0,0 l/m 0 min 0 min 0 W/m 0,0 km/h (0 Bft) 100,00 %
20.08.2018 21:30 21,2 C 20,0 C 19,4 C 82 % 1018,0 hPa 0,0 l/m 0 min 0 min 0 W/m 0,0 km/h (0 Bft) 100,00 %
20.08.2018 21:32 21,2 C 20,0 C 19,4 C 82 % 1018,0 hPa 0,0 l/m 0 min 0 min 0 W/m 0,0 km/h (0 Bft) 95,65 %
20.08.2018 21:34 21,1 C 20,0 C 19,4 C 82 % 1018,0 hPa 0,0 l/m 0 min 0 min 0 W/m 0,0 km/h (0 Bft) 100,00 %
20.08.2018 21:36 21,1 C 20,0 C 19,4 C 82 % 1018,0 hPa 0,0 l/m 0 min 0 min 0 W/m 0,0 km/h (0 Bft) 100,00 %
20.08.2018 21:38 21,1 C 20,0 C 19,4 C 82 % 1018,0 hPa 0,0 l/m 0 min 0 min 0 W/m 0,0 km/h (0 Bft) 100,00 %
20.08.2018 21:40 21,1 C 20,0 C 19,4 C 82 % 1018,0 hPa 0,0 l/m 0 min 0 min 0 W/m 0,0 km/h (0 Bft) 100,00 %
20.08.2018 21:42 21,1 C 20,0 C 19,4 C 82 % 1018,0 hPa 0,0 l/m 0 min 0 min 0 W/m 0,0 km/h (0 Bft) 100,00 %
20.08.2018 21:44 21,1 C 20,0 C 19,4 C 82 % 1018,0 hPa 0,0 l/m 0 min 0 min 0 W/m 0,0 km/h (0 Bft) 97,87 %
20.08.2018 21:46 21,0 C 20,0 C 19,4 C 82 % 1018,0 hPa 0,0 l/m 0 min 0 min 0 W/m 0,0 km/h (0 Bft) 100,00 %
20.08.2018 21:48 21,0 C 20,0 C 19,4 C 82 % 1018,0 hPa 0,0 l/m 0 min 0 min 0 W/m 0,0 km/h (0 Bft) 97,87 %
20.08.2018 21:50 21,0 C 20,0 C 19,4 C 82 % 1018,0 hPa 0,0 l/m 0 min 0 min 0 W/m 0,0 km/h (0 Bft) 100,00 %
20.08.2018 21:52 21,0 C 19,4 C 19,4 C 82 % 1018,1 hPa 0,0 l/m 0 min 0 min 0 W/m 0,0 km/h (0 Bft) 100,00 %
20.08.2018 21:54 21,0 C 19,4 C 19,4 C 83 % 1018,1 hPa 0,0 l/m 0 min 0 min 0 W/m 0,0 km/h (0 Bft) 100,00 %
20.08.2018 21:56 20,9 C 19,4 C 19,4 C 83 % 1018,0 hPa 0,0 l/m 0 min 0 min 0 W/m 0,0 km/h (0 Bft) 100,00 %
20.08.2018 21:58 20,9 C 19,4 C 19,4 C 83 % 1018,1 hPa 0,0 l/m 0 min 0 min 0 W/m 0,0 km/h (0 Bft) 100,00 %
20.08.2018 22:00 20,9 C 19,4 C 19,4 C 83 % 1018,1 hPa 0,0 l/m 0 min 0 min 0 W/m 0,0 km/h (0 Bft) 100,00 %
20.08.2018 22:02 20,9 C 19,4 C 19,4 C 83 % 1018,0 hPa 0,0 l/m 0 min 0 min 0 W/m 0,0 km/h (0 Bft) 93,62 %
20.08.2018 22:04 20,9 C 19,4 C 19,4 C 83 % 1018,0 hPa 0,0 l/m 0 min 0 min 0 W/m 0,0 km/h (0 Bft) 100,00 %
20.08.2018 22:06 20,9 C 19,4 C 19,4 C 83 % 1018,0 hPa 0,0 l/m 0 min 0 min 0 W/m 0,0 km/h (0 Bft) 100,00 %
20.08.2018 22:08 20,9 C 19,4 C 19,4 C 83 % 1018,0 hPa 0,0 l/m 0 min 0 min 0 W/m 0,0 km/h (0 Bft) 100,00 %
20.08.2018 22:10 20,8 C 19,4 C 19,4 C 83 % 1018,1 hPa 0,0 l/m 0 min 0 min 0 W/m 0,0 km/h (0 Bft) 98,25 %
20.08.2018 22:12 20,8 C 19,4 C 19,4 C 83 % 1018,1 hPa 0,0 l/m 0 min 0 min 0 W/m 0,0 km/h (0 Bft) 97,87 %
20.08.2018 22:14 20,8 C 19,4 C 19,4 C 83 % 1018,2 hPa 0,0 l/m 0 min 0 min 0 W/m 0,0 km/h (0 Bft) 100,00 %
20.08.2018 22:16 20,8 C 19,4 C 19,4 C 83 % 1018,1 hPa 0,0 l/m 0 min 0 min 0 W/m 0,0 km/h (0 Bft) 100,00 %
20.08.2018 22:18 20,8 C 19,4 C 19,4 C 83 % 1018,2 hPa 0,0 l/m 0 min 0 min 0 W/m 0,0 km/h (0 Bft) 100,00 %
20.08.2018 22:20 20,8 C 19,4 C 19,4 C 83 % 1018,0 hPa 0,0 l/m 0 min 0 min 0 W/m 0,0 km/h (0 Bft) 97,87 %
20.08.2018 22:22 20,7 C 19,4 C 19,4 C 83 % 1018,0 hPa 0,0 l/m 0 min 0 min 0 W/m 0,0 km/h (0 Bft) 97,87 %
20.08.2018 22:24 20,7 C 19,4 C 19,4 C 83 % 1018,1 hPa 0,0 l/m 0 min 0 min 0 W/m 0,0 km/h (0 Bft) 97,87 %
20.08.2018 22:26 20,7 C 19,4 C 19,4 C 83 % 1018,1 hPa 0,0 l/m 0 min 0 min 0 W/m 0,0 km/h (0 Bft) 97,87 %
20.08.2018 22:28 20,7 C 19,4 C 19,4 C 83 % 1018,2 hPa 0,0 l/m 0 min 0 min 0 W/m 0,0 km/h (0 Bft) 97,87 %
20.08.2018 22:30 20,7 C 19,4 C 19,4 C 83 % 1018,2 hPa 0,0 l/m 0 min 0 min 0 W/m 0,0 km/h (0 Bft) 97,83 %
20.08.2018 22:32 20,7 C 19,4 C 19,4 C 83 % 1018,2 hPa 0,0 l/m 0 min 0 min 0 W/m 0,0 km/h (0 Bft) 95,74 %
20.08.2018 22:34 20,7 C 19,4 C 18,9 C 83 % 1018,2 hPa 0,0 l/m 0 min 0 min 0 W/m 0,0 km/h (0 Bft) 95,74 %
20.08.2018 22:36 20,7 C 19,4 C 18,9 C 83 % 1018,1 hPa 0,0 l/m 0 min 0 min 0 W/m 0,0 km/h (0 Bft) 97,87 %
20.08.2018 22:38 20,7 C 19,4 C 18,9 C 84 % 1018,2 hPa 0,0 l/m 0 min 0 min 0 W/m 0,0 km/h (0 Bft) 95,74 %
20.08.2018 22:40 20,6 C 19,4 C 18,9 C 84 % 1018,1 hPa 0,0 l/m 0 min 0 min 0 W/m 0,0 km/h (0 Bft) 95,74 %
20.08.2018 22:42 20,6 C 19,4 C 18,9 C 84 % 1018,2 hPa 0,0 l/m 0 min 0 min 0 W/m 0,0 km/h (0 Bft) 95,65 %
20.08.2018 22:44 20,6 C 19,4 C 18,9 C 84 % 1018,2 hPa 0,0 l/m 0 min 0 min 0 W/m 0,0 km/h (0 Bft) 95,74 %
20.08.2018 22:46 20,6 C 19,4 C 18,9 C 84 % 1018,2 hPa 0,0 l/m 0 min 0 min 0 W/m 0,0 km/h (0 Bft) 95,74 %
20.08.2018 22:48 20,6 C 19,4 C 18,9 C 84 % 1018,3 hPa 0,0 l/m 0 min 0 min 0 W/m 0,0 km/h (0 Bft) 95,74 %
20.08.2018 22:50 20,6 C 19,4 C 18,9 C 84 % 1018,3 hPa 0,0 l/m 0 min 0 min 0 W/m 0,0 km/h (0 Bft) 95,74 %
20.08.2018 22:52 20,6 C 19,4 C 18,9 C 84 % 1018,3 hPa 0,0 l/m 0 min 0 min 0 W/m 0,0 km/h (0 Bft) 93,62 %
20.08.2018 22:54 20,6 C 19,4 C 18,9 C 84 % 1018,2 hPa 0,0 l/m 0 min 0 min 0 W/m 0,0 km/h (0 Bft) 95,65 %
20.08.2018 22:56 20,6 C 19,4 C 18,9 C 84 % 1018,2 hPa 0,0 l/m 0 min 0 min 0 W/m 0,0 km/h (0 Bft) 93,62 %
20.08.2018 22:58 20,6 C 19,4 C 18,9 C 84 % 1018,2 hPa 0,0 l/m 0 min 0 min 0 W/m 0,0 km/h (0 Bft) 95,74 %
20.08.2018 23:00 20,5 C 19,4 C 18,9 C 84 % 1018,2 hPa 0,0 l/m 0 min 0 min 0 W/m 0,0 km/h (0 Bft) 95,74 %
20.08.2018 23:02 20,5 C 19,4 C 18,9 C 84 % 1018,3 hPa 0,0 l/m 0 min 0 min 0 W/m 0,0 km/h (0 Bft) 95,74 %
20.08.2018 23:04 20,5 C 19,4 C 18,9 C 84 % 1018,3 hPa 0,0 l/m 0 min 0 min 0 W/m 0,0 km/h (0 Bft) 93,62 %
20.08.2018 23:06 20,5 C 19,4 C 18,9 C 84 % 1018,4 hPa 0,0 l/m 0 min 0 min 0 W/m 0,0 km/h (0 Bft) 95,65 %
20.08.2018 23:08 20,5 C 19,4 C 18,9 C 84 % 1018,4 hPa 0,0 l/m 0 min 0 min 0 W/m 0,0 km/h (0 Bft) 95,74 %
20.08.2018 23:10 20,4 C 19,4 C 18,9 C 84 % 1018,4 hPa 0,0 l/m 0 min 0 min 0 W/m 0,0 km/h (0 Bft) 93,62 %
20.08.2018 23:12 20,4 C 19,4 C 18,9 C 84 % 1018,3 hPa 0,0 l/m 0 min 0 min 0 W/m 0,0 km/h (0 Bft) 95,74 %
20.08.2018 23:14 20,4 C 19,4 C 18,9 C 84 % 1018,3 hPa 0,0 l/m 0 min 0 min 0 W/m 0,0 km/h (0 Bft) 97,87 %
20.08.2018 23:16 20,4 C 19,4 C 18,9 C 84 % 1018,4 hPa 0,0 l/m 0 min 0 min 0 W/m 0,0 km/h (0 Bft) 97,87 %
20.08.2018 23:18 20,4 C 19,4 C 18,9 C 84 % 1018,5 hPa 0,0 l/m 0 min 0 min 0 W/m 0,0 km/h (0 Bft) 100,00 %
20.08.2018 23:20 20,4 C 19,4 C 18,9 C 85 % 1018,4 hPa 0,0 l/m 0 min 0 min 0 W/m 0,0 km/h (0 Bft) 95,74 %
20.08.2018 23:22 20,4 C 18,9 C 18,9 C 85 % 1018,4 hPa 0,0 l/m 0 min 0 min 0 W/m 0,0 km/h (0 Bft) 97,87 %
20.08.2018 23:24 20,4 C 18,9 C 18,9 C 85 % 1018,4 hPa 0,0 l/m 0 min 0 min 0 W/m 0,0 km/h (0 Bft) 97,87 %
20.08.2018 23:26 20,4 C 18,9 C 18,9 C 85 % 1018,4 hPa 0,0 l/m 0 min 0 min 0 W/m 0,0 km/h (0 Bft) 95,74 %
20.08.2018 23:28 20,4 C 18,9 C 18,9 C 85 % 1018,5 hPa 0,0 l/m 0 min 0 min 0 W/m 0,0 km/h (0 Bft) 97,87 %
20.08.2018 23:30 20,3 C 18,9 C 18,9 C 85 % 1018,4 hPa 0,0 l/m 0 min 0 min 0 W/m 0,0 km/h (0 Bft) 97,83 %
20.08.2018 23:32 20,3 C 18,9 C 18,9 C 85 % 1018,4 hPa 0,0 l/m 0 min 0 min 0 W/m 0,0 km/h (0 Bft) 95,74 %
20.08.2018 23:34 20,3 C 18,9 C 18,9 C 85 % 1018,4 hPa 0,0 l/m 0 min 0 min 0 W/m 0,0 km/h (0 Bft) 93,62 %
20.08.2018 23:36 20,3 C 18,9 C 18,9 C 85 % 1018,4 hPa 0,0 l/m 0 min 0 min 0 W/m 0,0 km/h (0 Bft) 97,87 %
20.08.2018 23:38 20,3 C 18,9 C 18,9 C 86 % 1018,4 hPa 0,0 l/m 0 min 0 min 0 W/m 0,0 km/h (0 Bft) 95,74 %
20.08.2018 23:40 20,3 C 18,9 C 18,9 C 85 % 1018,4 hPa 0,0 l/m 0 min 0 min 0 W/m 0,0 km/h (0 Bft) 95,65 %
20.08.2018 23:42 20,3 C 18,9 C 18,9 C 85 % 1018,4 hPa 0,0 l/m 0 min 0 min 0 W/m 0,0 km/h (0 Bft) 97,87 %
20.08.2018 23:44 20,2 C 18,9 C 18,9 C 85 % 1018,5 hPa 0,0 l/m 0 min 0 min 0 W/m 0,0 km/h (0 Bft) 97,87 %
20.08.2018 23:46 20,2 C 18,9 C 18,9 C 85 % 1018,5 hPa 0,0 l/m 0 min 0 min 0 W/m 0,0 km/h (0 Bft) 97,87 %
20.08.2018 23:48 20,2 C 18,9 C 18,9 C 85 % 1018,4 hPa 0,0 l/m 0 min 0 min 0 W/m 0,0 km/h (0 Bft) 97,87 %
20.08.2018 23:50 20,2 C 18,9 C 18,9 C 85 % 1018,5 hPa 0,0 l/m 0 min 0 min 0 W/m 0,0 km/h (0 Bft) 97,87 %
20.08.2018 23:52 20,2 C 18,9 C 18,9 C 85 % 1018,4 hPa 0,0 l/m 0 min 0 min 0 W/m 0,0 km/h (0 Bft) 97,83 %
20.08.2018 23:54 20,2 C 18,9 C 18,3 C 85 % 1018,4 hPa 0,0 l/m 0 min 0 min 0 W/m 0,0 km/h (0 Bft) 97,87 %
20.08.2018 23:56 20,2 C 18,9 C 18,9 C 85 % 1018,4 hPa 0,0 l/m 0 min 0 min 0 W/m 0,0 km/h (0 Bft) 97,87 %
20.08.2018 23:58 20,1 C 18,9 C 18,3 C 85 % 1018,4 hPa 0,0 l/m 0 min 0 min 0 W/m 0,0 km/h (0 Bft) 97,87 %
_ Min-Zeit 05:04 04:32 03:54 18:06 04:44 - - - - 00:00 07:02
Minimum _ 18,7 C 17,2 C 17,8 C 75 % 1016,1 hPa - - - - 0,0 km/h (0 Bft) 91,30 %
_ Max-Zeit 14:22 13:52 13:52 10:28 23:18 00:00 12:34 09:44 14:04 08:24 00:00
Maximum _ 23,7 C 25,0 C 22,2 C 94 % 1018,5 hPa 0,0 l/m 2 min 2 min 444 W/m 13,5 km/h
W-SW (3 Bft)
100,00 %
Durchschnitt _ 20,6 C 20,1 C 19,4 C 86 % 1017,2 hPa #0,0 l/m #36 min. #28 min. 114 W/m 3,1 km/h (1 Bft) 97,51 %
© 2018 W. Hausmann